CCA028 UUEE-ZKPY
Flight info
| Callsign | CCA028 |
|---|---|
| Flight time | 7h 16m |
| Altitude | 37000 |
| Route | RILPO3H RILPO T753 AGBIR T783 BALOB N155 NIPRA T631 GEPLA/K0926F390 T631 SOREB B718 SOTOM A920 KTN/K0906F410 A91 AGINO A810 TELOK/K0907S1250 DCT KAGAK DCT ABVAX A345 GASAN GAS11A |
| Aircraft | A359/H-SDE2E3GHIJ3J4J5LM1ORWXY/LB1D1 |
Departure
| Time | 2026-04-26 23:55 |
|---|---|
| Airport | Sheremetyevo International Airport (UUEE) |
Arrival
| Time | 2026-04-27 07:11 |
|---|---|
| Airport | Pyongyang Sunan International Airport (ZKPY) |
| Time | Latitude | Longitude | Altitude | Speed | Heading |
|---|---|---|---|---|---|
| 2026-04-26 23:38 | 55.97928 | 37.41217 | 645 ft | 0 kts | 255° |
| 2026-04-26 23:41 | 55.97929 | 37.41224 | 646 ft | 3 kts | 255° |
| 2026-04-26 23:41 | 55.97936 | 37.41270 | 653 ft | 4 kts | 253° |
| 2026-04-26 23:42 | 55.97944 | 37.41316 | 650 ft | 4 kts | 248° |
| 2026-04-26 23:42 | 55.97970 | 37.41387 | 651 ft | 4 kts | 201° |
| 2026-04-26 23:42 | 55.97981 | 37.41393 | 648 ft | 0 kts | 165° |
| 2026-04-26 23:49 | 55.97980 | 37.41394 | 649 ft | 1 kts | 165° |
| 2026-04-26 23:50 | 55.97961 | 37.41401 | 653 ft | 4 kts | 167° |
| 2026-04-26 23:50 | 55.97923 | 37.41416 | 645 ft | 7 kts | 167° |
| 2026-04-26 23:50 | 55.97866 | 37.41441 | 645 ft | 10 kts | 164° |
| 2026-04-26 23:50 | 55.97791 | 37.41480 | 645 ft | 12 kts | 164° |
| 2026-04-26 23:51 | 55.97703 | 37.41528 | 648 ft | 14 kts | 158° |
| 2026-04-26 23:51 | 55.97618 | 37.41638 | 645 ft | 15 kts | 123° |
| 2026-04-26 23:51 | 55.97629 | 37.41823 | 645 ft | 16 kts | 76° |
| 2026-04-26 23:51 | 55.97658 | 37.42030 | 645 ft | 18 kts | 75° |
| 2026-04-26 23:52 | 55.97694 | 37.42256 | 648 ft | 20 kts | 74° |
| 2026-04-26 23:52 | 55.97732 | 37.42501 | 645 ft | 21 kts | 74° |
| 2026-04-26 23:52 | 55.97772 | 37.42763 | 645 ft | 23 kts | 75° |
| 2026-04-26 23:52 | 55.97815 | 37.43040 | 645 ft | 24 kts | 74° |
| 2026-04-26 23:53 | 55.97858 | 37.43328 | 645 ft | 24 kts | 75° |
| 2026-04-26 23:53 | 55.97903 | 37.43625 | 645 ft | 25 kts | 75° |
| 2026-04-26 23:53 | 55.97946 | 37.43921 | 645 ft | 16 kts | 80° |
| 2026-04-26 23:53 | 55.97899 | 37.44049 | 645 ft | 14 kts | 165° |
| 2026-04-26 23:54 | 55.97801 | 37.44088 | 646 ft | 13 kts | 181° |
| 2026-04-26 23:54 | 55.97760 | 37.44051 | 646 ft | 1 kts | 237° |
| 2026-04-26 23:54 | 55.97762 | 37.44010 | 646 ft | 4 kts | 273° |
| 2026-04-26 23:54 | 55.97759 | 37.43951 | 647 ft | 8 kts | 263° |
| 2026-04-26 23:55 | 55.97705 | 37.43491 | 647 ft | 71 kts | 255° |
| 2026-04-26 23:55 | 55.97524 | 37.42268 | 647 ft | 131 kts | 256° |
| 2026-04-26 23:55 | 55.97240 | 37.40430 | 913 ft | 160 kts | 256° |
| 2026-04-26 23:55 | 55.96946 | 37.38617 | 1895 ft | 146 kts | 262° |
| 2026-04-26 23:56 | 55.96659 | 37.36871 | 2686 ft | 151 kts | 267° |
| 2026-04-26 23:56 | 55.96374 | 37.34885 | 2963 ft | 179 kts | 266° |
| 2026-04-26 23:56 | 55.96044 | 37.32592 | 3185 ft | 208 kts | 263° |
| 2026-04-26 23:56 | 55.95638 | 37.29922 | 3526 ft | 235 kts | 262° |
| 2026-04-26 23:57 | 55.95176 | 37.27033 | 4196 ft | 246 kts | 261° |
| 2026-04-26 23:57 | 55.94697 | 37.24060 | 4970 ft | 252 kts | 260° |
| 2026-04-26 23:57 | 55.94211 | 37.21012 | 5795 ft | 257 kts | 259° |
| 2026-04-26 23:57 | 55.93719 | 37.17907 | 6582 ft | 263 kts | 259° |
| 2026-04-26 23:58 | 55.93215 | 37.14734 | 7383 ft | 269 kts | 258° |
| 2026-04-26 23:58 | 55.92700 | 37.11490 | 8217 ft | 274 kts | 257° |
| 2026-04-26 23:58 | 55.92176 | 37.08188 | 8946 ft | 279 kts | 257° |
| 2026-04-26 23:58 | 55.91748 | 37.04787 | 9276 ft | 281 kts | 267° |
| 2026-04-26 23:59 | 55.91940 | 37.01377 | 9334 ft | 275 kts | 291° |
| 2026-04-26 23:59 | 55.92885 | 36.98515 | 9339 ft | 271 kts | 314° |
| 2026-04-26 23:59 | 55.94333 | 36.96380 | 9337 ft | 270 kts | 326° |
| 2026-04-26 23:59 | 55.95891 | 36.94490 | 9336 ft | 271 kts | 327° |
| 2026-04-27 00:00 | 55.97502 | 36.92745 | 9336 ft | 271 kts | 335° |
| 2026-04-27 00:00 | 55.99319 | 36.91917 | 9346 ft | 270 kts | 357° |
| 2026-04-27 00:00 | 56.01164 | 36.92472 | 9469 ft | 273 kts | 21° |
| 2026-04-27 00:00 | 56.02832 | 36.94131 | 9961 ft | 278 kts | 32° |
| 2026-04-27 00:01 | 56.04456 | 36.96063 | 10790 ft | 282 kts | 32° |
| 2026-04-27 00:01 | 56.06104 | 36.98019 | 11623 ft | 287 kts | 32° |
| 2026-04-27 00:01 | 56.07769 | 36.99981 | 12406 ft | 292 kts | 32° |
| 2026-04-27 00:01 | 56.09489 | 37.02002 | 13055 ft | 298 kts | 32° |
| 2026-04-27 00:02 | 56.11136 | 37.04304 | 13301 ft | 302 kts | 45° |
| 2026-04-27 00:02 | 56.12254 | 37.07420 | 13392 ft | 304 kts | 69° |
| 2026-04-27 00:02 | 56.12865 | 37.11148 | 13608 ft | 315 kts | 76° |
| 2026-04-27 00:02 | 56.13396 | 37.15055 | 14023 ft | 328 kts | 76° |
| 2026-04-27 00:03 | 56.13936 | 37.18986 | 14267 ft | 329 kts | 76° |
| 2026-04-27 00:03 | 56.14490 | 37.22964 | 14316 ft | 329 kts | 76° |
| 2026-04-27 00:03 | 56.15047 | 37.26946 | 14313 ft | 329 kts | 76° |
| 2026-04-27 00:03 | 56.15609 | 37.30921 | 14315 ft | 329 kts | 76° |
| 2026-04-27 00:04 | 56.16423 | 37.34758 | 14326 ft | 330 kts | 61° |
| 2026-04-27 00:04 | 56.17665 | 37.38233 | 14595 ft | 332 kts | 56° |
| 2026-04-27 00:04 | 56.18987 | 37.41653 | 15089 ft | 333 kts | 56° |
| 2026-04-27 00:04 | 56.20297 | 37.45060 | 15293 ft | 331 kts | 57° |
| 2026-04-27 00:05 | 56.21600 | 37.48467 | 15313 ft | 331 kts | 57° |
| 2026-04-27 00:05 | 56.22899 | 37.51885 | 15301 ft | 331 kts | 57° |
| 2026-04-27 00:05 | 56.24207 | 37.55316 | 15403 ft | 332 kts | 57° |
| 2026-04-27 00:05 | 56.25518 | 37.58749 | 15866 ft | 335 kts | 58° |
| 2026-04-27 00:06 | 56.26836 | 37.62211 | 16228 ft | 334 kts | 58° |
| 2026-04-27 00:06 | 56.28149 | 37.65662 | 16305 ft | 334 kts | 58° |
| 2026-04-27 00:06 | 56.29458 | 37.69118 | 16303 ft | 335 kts | 58° |
| 2026-04-27 00:06 | 56.30850 | 37.72480 | 16332 ft | 337 kts | 53° |
| 2026-04-27 00:07 | 56.32340 | 37.75707 | 16626 ft | 340 kts | 53° |
| 2026-04-27 00:07 | 56.33874 | 37.78992 | 17146 ft | 342 kts | 53° |
| 2026-04-27 00:07 | 56.35403 | 37.82273 | 17283 ft | 342 kts | 53° |
| 2026-04-27 00:07 | 56.36937 | 37.85563 | 17285 ft | 343 kts | 53° |
| 2026-04-27 00:08 | 56.38671 | 37.88556 | 17285 ft | 350 kts | 39° |
| 2026-04-27 00:08 | 56.40861 | 37.90539 | 17308 ft | 357 kts | 19° |
| 2026-04-27 00:08 | 56.43352 | 37.91285 | 17480 ft | 371 kts | 7° |
| 2026-04-27 00:08 | 56.45984 | 37.91631 | 17706 ft | 388 kts | 6° |
| 2026-04-27 00:09 | 56.48733 | 37.91967 | 17953 ft | 404 kts | 6° |
| 2026-04-27 00:09 | 56.51588 | 37.92332 | 18247 ft | 417 kts | 6° |
| 2026-04-27 00:09 | 56.54528 | 37.92718 | 18723 ft | 426 kts | 6° |
| 2026-04-27 00:09 | 56.57509 | 37.93116 | 19241 ft | 433 kts | 7° |
| 2026-04-27 00:10 | 56.60504 | 37.93520 | 19738 ft | 441 kts | 7° |
| 2026-04-27 00:10 | 56.63622 | 37.93948 | 20279 ft | 447 kts | 7° |
| 2026-04-27 00:10 | 56.66709 | 37.94795 | 20800 ft | 450 kts | 18° |
| 2026-04-27 00:10 | 56.69625 | 37.96815 | 21334 ft | 448 kts | 33° |
| 2026-04-27 00:11 | 56.72166 | 38.00018 | 21887 ft | 443 kts | 47° |
| 2026-04-27 00:11 | 56.74383 | 38.03827 | 22452 ft | 445 kts | 51° |
| 2026-04-27 00:11 | 56.76597 | 38.07833 | 22981 ft | 451 kts | 52° |
| 2026-04-27 00:11 | 56.78837 | 38.11893 | 23459 ft | 456 kts | 52° |
| 2026-04-27 00:12 | 56.81101 | 38.15985 | 23973 ft | 460 kts | 51° |
| 2026-04-27 00:12 | 56.83384 | 38.20105 | 24468 ft | 463 kts | 51° |
| 2026-04-27 00:12 | 56.85691 | 38.24271 | 24981 ft | 468 kts | 51° |
| 2026-04-27 00:12 | 56.88015 | 38.28466 | 25458 ft | 472 kts | 51° |
| 2026-04-27 00:13 | 56.90451 | 38.32571 | 25948 ft | 479 kts | 47° |
| 2026-04-27 00:13 | 56.93002 | 38.36551 | 26449 ft | 484 kts | 45° |
| 2026-04-27 00:13 | 56.95604 | 38.40495 | 26932 ft | 489 kts | 45° |
| 2026-04-27 00:13 | 56.98249 | 38.44498 | 27399 ft | 493 kts | 45° |
| 2026-04-27 00:14 | 57.00887 | 38.48535 | 27918 ft | 497 kts | 45° |
| 2026-04-27 00:14 | 57.03539 | 38.52647 | 28376 ft | 501 kts | 46° |
| 2026-04-27 00:14 | 57.06199 | 38.56815 | 28838 ft | 504 kts | 46° |
| 2026-04-27 00:14 | 57.08874 | 38.61039 | 29272 ft | 508 kts | 46° |
| 2026-04-27 00:15 | 57.11529 | 38.65249 | 29634 ft | 512 kts | 46° |
| 2026-04-27 00:15 | 57.14234 | 38.69550 | 30025 ft | 514 kts | 45° |
| 2026-04-27 00:15 | 57.16943 | 38.73865 | 30407 ft | 516 kts | 45° |
| 2026-04-27 00:15 | 57.19662 | 38.78201 | 30767 ft | 518 kts | 45° |
| 2026-04-27 00:16 | 57.22392 | 38.82565 | 31100 ft | 521 kts | 45° |
| 2026-04-27 00:16 | 57.25142 | 38.86967 | 31438 ft | 523 kts | 44° |
| 2026-04-27 00:16 | 57.27884 | 38.91366 | 31813 ft | 524 kts | 44° |
| 2026-04-27 00:16 | 57.30632 | 38.95781 | 32322 ft | 521 kts | 44° |
| 2026-04-27 00:17 | 57.33361 | 39.00175 | 32843 ft | 519 kts | 44° |
| 2026-04-27 00:17 | 57.36086 | 39.04572 | 33319 ft | 517 kts | 44° |
| 2026-04-27 00:17 | 57.38793 | 39.08950 | 33656 ft | 517 kts | 43° |
| 2026-04-27 00:17 | 57.41503 | 39.13342 | 33952 ft | 518 kts | 43° |
| 2026-04-27 00:18 | 57.44218 | 39.17753 | 34256 ft | 518 kts | 43° |
| 2026-04-27 00:18 | 57.46926 | 39.22161 | 34571 ft | 518 kts | 43° |
| 2026-04-27 00:18 | 57.49630 | 39.26571 | 34877 ft | 518 kts | 43° |
| 2026-04-27 00:18 | 57.52348 | 39.31002 | 35180 ft | 518 kts | 43° |
| 2026-04-27 00:19 | 57.55057 | 39.35419 | 35491 ft | 518 kts | 43° |
| 2026-04-27 00:19 | 57.57770 | 39.39845 | 35811 ft | 518 kts | 42° |
| 2026-04-27 00:19 | 57.60490 | 39.44294 | 36093 ft | 519 kts | 42° |
| 2026-04-27 00:19 | 57.63167 | 39.48683 | 36191 ft | 521 kts | 42° |
| 2026-04-27 00:20 | 57.68599 | 39.57614 | 36198 ft | 520 kts | 42° |
| 2026-04-27 00:20 | 57.74026 | 39.66579 | 36196 ft | 520 kts | 43° |
| 2026-04-27 00:21 | 57.79442 | 39.75566 | 36197 ft | 520 kts | 43° |
| 2026-04-27 00:21 | 57.84854 | 39.84585 | 36202 ft | 520 kts | 43° |
| 2026-04-27 00:22 | 57.90230 | 39.93589 | 36209 ft | 520 kts | 43° |
| 2026-04-27 00:22 | 57.95606 | 40.02702 | 36210 ft | 520 kts | 43° |
| 2026-04-27 00:23 | 58.00975 | 40.11856 | 36215 ft | 520 kts | 43° |
| 2026-04-27 00:23 | 58.06350 | 40.21047 | 36219 ft | 520 kts | 43° |
| 2026-04-27 00:24 | 58.11715 | 40.30251 | 36224 ft | 521 kts | 43° |
| 2026-04-27 00:24 | 58.16813 | 40.39954 | 36229 ft | 519 kts | 54° |
| 2026-04-27 00:25 | 58.20749 | 40.51384 | 36228 ft | 517 kts | 60° |
| 2026-04-27 00:25 | 58.24391 | 40.63040 | 36239 ft | 517 kts | 62° |
| 2026-04-27 00:26 | 58.28011 | 40.74837 | 36242 ft | 517 kts | 62° |
| 2026-04-27 00:26 | 58.31048 | 40.84737 | 36246 ft | 517 kts | 62° |
| 2026-04-27 00:27 | 58.34653 | 40.96482 | 36250 ft | 517 kts | 62° |
| 2026-04-27 00:27 | 58.38279 | 41.08335 | 36258 ft | 517 kts | 62° |
| 2026-04-27 00:28 | 58.41892 | 41.20208 | 36264 ft | 517 kts | 62° |
| 2026-04-27 00:28 | 58.45497 | 41.32120 | 36269 ft | 518 kts | 62° |
| 2026-04-27 00:29 | 58.49083 | 41.44029 | 36277 ft | 518 kts | 62° |
| 2026-04-27 00:29 | 58.52668 | 41.55997 | 36281 ft | 518 kts | 62° |
| 2026-04-27 00:30 | 58.56237 | 41.67973 | 36292 ft | 518 kts | 62° |
| 2026-04-27 00:30 | 58.59797 | 41.79983 | 36296 ft | 518 kts | 62° |
| 2026-04-27 00:31 | 58.63348 | 41.92022 | 36305 ft | 518 kts | 62° |
| 2026-04-27 00:31 | 58.66888 | 42.04088 | 36310 ft | 519 kts | 63° |
| 2026-04-27 00:32 | 58.70423 | 42.16199 | 36321 ft | 519 kts | 63° |
| 2026-04-27 00:32 | 58.73944 | 42.28326 | 36328 ft | 519 kts | 63° |
| 2026-04-27 00:33 | 58.77451 | 42.40466 | 36334 ft | 519 kts | 63° |
| 2026-04-27 00:33 | 58.80936 | 42.52569 | 36343 ft | 519 kts | 63° |
| 2026-04-27 00:34 | 58.84438 | 42.64774 | 36347 ft | 519 kts | 63° |
| 2026-04-27 00:34 | 58.87927 | 42.76999 | 36359 ft | 519 kts | 63° |
| 2026-04-27 00:35 | 58.91402 | 42.89245 | 36364 ft | 519 kts | 63° |
| 2026-04-27 00:35 | 58.94841 | 43.01429 | 36369 ft | 519 kts | 63° |
| 2026-04-27 00:36 | 58.98300 | 43.13748 | 36378 ft | 520 kts | 63° |
| 2026-04-27 00:36 | 59.01741 | 43.26071 | 36382 ft | 520 kts | 64° |
| 2026-04-27 00:37 | 59.05178 | 43.38449 | 36388 ft | 520 kts | 64° |
| 2026-04-27 00:37 | 59.08605 | 43.50856 | 36389 ft | 521 kts | 64° |
| 2026-04-27 00:38 | 59.12019 | 43.63286 | 36395 ft | 521 kts | 64° |
| 2026-04-27 00:38 | 59.15430 | 43.75773 | 36396 ft | 521 kts | 64° |
| 2026-04-27 00:39 | 59.18803 | 43.88191 | 36409 ft | 522 kts | 64° |
| 2026-04-27 00:39 | 59.22189 | 44.00726 | 36411 ft | 522 kts | 64° |
| 2026-04-27 00:40 | 59.25549 | 44.13309 | 36415 ft | 522 kts | 66° |
| 2026-04-27 00:40 | 59.28314 | 44.26386 | 36436 ft | 520 kts | 71° |
| 2026-04-27 00:41 | 59.30907 | 44.39619 | 36448 ft | 521 kts | 71° |
| 2026-04-27 00:41 | 59.33460 | 44.52900 | 36453 ft | 521 kts | 72° |
| 2026-04-27 00:42 | 59.36006 | 44.66195 | 36453 ft | 521 kts | 72° |
| 2026-04-27 00:42 | 59.38547 | 44.79506 | 36466 ft | 521 kts | 72° |
| 2026-04-27 00:43 | 59.41082 | 44.92865 | 36467 ft | 522 kts | 72° |
| 2026-04-27 00:43 | 59.43584 | 45.06145 | 36468 ft | 522 kts | 72° |
| 2026-04-27 00:44 | 59.46092 | 45.19548 | 36481 ft | 522 kts | 72° |
| 2026-04-27 00:44 | 59.48585 | 45.32964 | 36488 ft | 522 kts | 72° |
| 2026-04-27 00:45 | 59.51070 | 45.46430 | 36489 ft | 523 kts | 72° |
| 2026-04-27 00:45 | 59.53606 | 45.59874 | 36498 ft | 523 kts | 71° |
| 2026-04-27 00:46 | 59.56262 | 45.73154 | 36510 ft | 524 kts | 70° |
| 2026-04-27 00:46 | 59.58930 | 45.86534 | 36515 ft | 524 kts | 70° |
| 2026-04-27 00:47 | 59.61562 | 45.99959 | 36519 ft | 524 kts | 71° |
| 2026-04-27 00:47 | 59.64170 | 46.13431 | 36530 ft | 524 kts | 71° |
| 2026-04-27 00:48 | 59.66760 | 46.26912 | 36537 ft | 524 kts | 71° |
| 2026-04-27 00:48 | 59.69339 | 46.40423 | 36539 ft | 524 kts | 71° |
| 2026-04-27 00:49 | 59.71903 | 46.53943 | 36548 ft | 525 kts | 71° |
| 2026-04-27 00:49 | 59.74461 | 46.67522 | 36550 ft | 525 kts | 71° |
| 2026-04-27 00:50 | 59.78249 | 46.87811 | 36563 ft | 525 kts | 71° |
| 2026-04-27 00:51 | 59.80766 | 47.01414 | 36571 ft | 525 kts | 71° |
| 2026-04-27 00:51 | 59.83268 | 47.15034 | 36579 ft | 525 kts | 71° |
| 2026-04-27 00:52 | 59.85763 | 47.28713 | 36598 ft | 525 kts | 72° |
| 2026-04-27 00:52 | 59.88235 | 47.42369 | 36596 ft | 525 kts | 72° |
| 2026-04-27 00:53 | 59.90679 | 47.55972 | 36591 ft | 525 kts | 72° |
| 2026-04-27 00:53 | 59.93125 | 47.69677 | 36607 ft | 525 kts | 72° |
| 2026-04-27 00:54 | 59.95556 | 47.83403 | 36609 ft | 525 kts | 72° |
| 2026-04-27 00:54 | 59.97986 | 47.97156 | 36618 ft | 525 kts | 72° |
| 2026-04-27 00:55 | 60.00417 | 48.10927 | 36630 ft | 525 kts | 72° |
| 2026-04-27 00:55 | 60.02834 | 48.24711 | 36631 ft | 525 kts | 72° |
| 2026-04-27 00:56 | 60.05234 | 48.38520 | 36642 ft | 526 kts | 72° |
| 2026-04-27 00:56 | 60.07619 | 48.52357 | 36642 ft | 526 kts | 72° |
| 2026-04-27 00:57 | 60.09979 | 48.66147 | 36651 ft | 526 kts | 72° |
| 2026-04-27 00:57 | 60.12340 | 48.80050 | 36660 ft | 526 kts | 72° |
| 2026-04-27 00:58 | 60.14686 | 48.93964 | 36666 ft | 527 kts | 72° |
| 2026-04-27 00:58 | 60.17019 | 49.07914 | 36665 ft | 527 kts | 72° |
| 2026-04-27 00:59 | 60.19336 | 49.21872 | 36670 ft | 527 kts | 73° |
| 2026-04-27 00:59 | 60.21568 | 49.35915 | 36674 ft | 527 kts | 74° |
| 2026-04-27 01:00 | 60.23658 | 49.50047 | 36677 ft | 527 kts | 75° |
| 2026-04-27 01:00 | 60.25723 | 49.64103 | 36681 ft | 527 kts | 75° |
| 2026-04-27 01:01 | 60.27810 | 49.78257 | 36686 ft | 527 kts | 75° |
| 2026-04-27 01:01 | 60.29894 | 49.92436 | 36692 ft | 527 kts | 75° |
| 2026-04-27 01:02 | 60.31964 | 50.06628 | 36698 ft | 527 kts | 75° |
| 2026-04-27 01:02 | 60.34005 | 50.20756 | 36702 ft | 527 kts | 75° |
| 2026-04-27 01:03 | 60.36045 | 50.35003 | 36700 ft | 527 kts | 75° |
| 2026-04-27 01:03 | 60.38071 | 50.49268 | 36712 ft | 527 kts | 75° |
| 2026-04-27 01:04 | 60.40079 | 50.63539 | 36725 ft | 528 kts | 75° |
| 2026-04-27 01:04 | 60.42072 | 50.77834 | 36722 ft | 528 kts | 75° |
| 2026-04-27 01:05 | 60.44052 | 50.92153 | 36723 ft | 528 kts | 75° |
| 2026-04-27 01:05 | 60.46004 | 51.06405 | 36735 ft | 528 kts | 75° |
| 2026-04-27 01:06 | 60.47962 | 51.20781 | 36736 ft | 529 kts | 75° |
| 2026-04-27 01:06 | 60.49913 | 51.35166 | 36748 ft | 529 kts | 75° |
| 2026-04-27 01:07 | 60.51850 | 51.49582 | 36755 ft | 529 kts | 76° |
| 2026-04-27 01:07 | 60.53773 | 51.64028 | 36763 ft | 530 kts | 76° |
| 2026-04-27 01:08 | 60.55687 | 51.78496 | 36776 ft | 530 kts | 76° |
| 2026-04-27 01:08 | 60.57583 | 51.92981 | 36784 ft | 530 kts | 76° |
| 2026-04-27 01:09 | 60.59464 | 52.07499 | 36793 ft | 531 kts | 76° |
| 2026-04-27 01:09 | 60.61331 | 52.22033 | 36800 ft | 531 kts | 76° |
| 2026-04-27 01:10 | 60.63181 | 52.36577 | 36813 ft | 531 kts | 76° |
| 2026-04-27 01:10 | 60.65006 | 52.51055 | 36821 ft | 531 kts | 76° |
| 2026-04-27 01:11 | 60.66829 | 52.65661 | 36832 ft | 531 kts | 76° |
| 2026-04-27 01:11 | 60.68633 | 52.80262 | 36844 ft | 531 kts | 76° |
| 2026-04-27 01:12 | 60.70421 | 52.94876 | 36852 ft | 531 kts | 76° |
| 2026-04-27 01:12 | 60.71896 | 53.07043 | 36861 ft | 531 kts | 76° |
| 2026-04-27 01:13 | 60.73653 | 53.21678 | 36864 ft | 530 kts | 76° |
| 2026-04-27 01:13 | 60.75677 | 53.38716 | 36869 ft | 530 kts | 77° |
| 2026-04-27 01:14 | 60.77123 | 53.51007 | 36875 ft | 530 kts | 77° |
| 2026-04-27 01:14 | 60.78826 | 53.65609 | 36882 ft | 530 kts | 77° |
| 2026-04-27 01:15 | 60.80587 | 53.80291 | 36883 ft | 530 kts | 76° |
| 2026-04-27 01:15 | 60.82357 | 53.94959 | 36889 ft | 530 kts | 76° |
| 2026-04-27 01:16 | 60.84106 | 54.09656 | 36896 ft | 530 kts | 76° |
| 2026-04-27 01:16 | 60.85830 | 54.24369 | 36901 ft | 530 kts | 77° |
| 2026-04-27 01:17 | 60.87534 | 54.39090 | 36908 ft | 530 kts | 77° |
| 2026-04-27 01:17 | 60.89223 | 54.53831 | 36907 ft | 530 kts | 77° |
| 2026-04-27 01:18 | 60.90885 | 54.68483 | 36911 ft | 530 kts | 77° |
| 2026-04-27 01:18 | 60.92540 | 54.83239 | 36919 ft | 530 kts | 77° |
| 2026-04-27 01:19 | 60.94180 | 54.98020 | 36922 ft | 530 kts | 77° |
| 2026-04-27 01:19 | 60.95802 | 55.12795 | 36923 ft | 529 kts | 77° |
| 2026-04-27 01:20 | 60.97410 | 55.27613 | 36930 ft | 529 kts | 77° |
| 2026-04-27 01:20 | 60.98990 | 55.42327 | 36934 ft | 529 kts | 77° |
| 2026-04-27 01:21 | 61.00564 | 55.57154 | 36937 ft | 529 kts | 77° |
| 2026-04-27 01:21 | 61.02124 | 55.72015 | 36940 ft | 530 kts | 78° |
| 2026-04-27 01:22 | 61.03665 | 55.86870 | 36942 ft | 529 kts | 78° |
| 2026-04-27 01:22 | 61.05190 | 56.01739 | 36941 ft | 529 kts | 78° |
| 2026-04-27 01:23 | 61.06699 | 56.16617 | 36942 ft | 529 kts | 78° |
| 2026-04-27 01:23 | 61.08192 | 56.31519 | 36943 ft | 529 kts | 78° |
| 2026-04-27 01:24 | 61.09667 | 56.46425 | 36948 ft | 529 kts | 78° |
| 2026-04-27 01:24 | 61.11114 | 56.61231 | 36953 ft | 529 kts | 78° |
| 2026-04-27 01:25 | 61.12555 | 56.76147 | 36954 ft | 529 kts | 78° |
| 2026-04-27 01:25 | 61.13982 | 56.91099 | 36959 ft | 529 kts | 78° |
| 2026-04-27 01:26 | 61.15390 | 57.06050 | 36958 ft | 529 kts | 78° |
| 2026-04-27 01:26 | 61.16870 | 57.20975 | 36961 ft | 528 kts | 73° |
| 2026-04-27 01:27 | 61.18933 | 57.35572 | 36965 ft | 528 kts | 72° |
| 2026-04-27 01:27 | 61.21099 | 57.50140 | 36964 ft | 528 kts | 72° |
| 2026-04-27 01:28 | 61.23264 | 57.64699 | 36962 ft | 528 kts | 72° |
| 2026-04-27 01:28 | 61.25390 | 57.79195 | 36967 ft | 528 kts | 72° |
| 2026-04-27 01:29 | 61.27510 | 57.93822 | 36970 ft | 528 kts | 72° |
| 2026-04-27 01:29 | 61.29611 | 58.08469 | 36976 ft | 528 kts | 72° |
| 2026-04-27 01:30 | 61.31698 | 58.23133 | 36972 ft | 528 kts | 72° |
| 2026-04-27 01:30 | 61.33767 | 58.37811 | 36976 ft | 528 kts | 73° |
| 2026-04-27 01:31 | 61.35817 | 58.52483 | 36979 ft | 527 kts | 73° |
| 2026-04-27 01:31 | 61.37851 | 58.67169 | 36985 ft | 527 kts | 73° |
| 2026-04-27 01:32 | 61.39872 | 58.81894 | 36981 ft | 527 kts | 73° |
| 2026-04-27 01:32 | 61.41861 | 58.96522 | 36984 ft | 527 kts | 73° |
| 2026-04-27 01:33 | 61.43845 | 59.11245 | 36982 ft | 526 kts | 73° |
| 2026-04-27 01:33 | 61.45813 | 59.25986 | 36979 ft | 526 kts | 73° |
| 2026-04-27 01:34 | 61.47764 | 59.40742 | 36978 ft | 526 kts | 74° |
| 2026-04-27 01:34 | 61.49702 | 59.55538 | 36976 ft | 526 kts | 74° |
| 2026-04-27 01:35 | 61.51623 | 59.70344 | 36975 ft | 527 kts | 74° |
| 2026-04-27 01:35 | 61.53530 | 59.85175 | 36971 ft | 527 kts | 74° |
| 2026-04-27 01:36 | 61.55407 | 59.99927 | 36969 ft | 526 kts | 74° |
| 2026-04-27 01:36 | 61.57290 | 60.14783 | 36966 ft | 526 kts | 74° |
| 2026-04-27 01:37 | 61.59160 | 60.29643 | 36963 ft | 526 kts | 75° |
| 2026-04-27 01:37 | 61.61010 | 60.44494 | 36961 ft | 525 kts | 75° |
| 2026-04-27 01:38 | 61.62846 | 60.59391 | 36957 ft | 525 kts | 75° |
| 2026-04-27 01:38 | 61.64661 | 60.74270 | 36952 ft | 525 kts | 75° |
| 2026-04-27 01:39 | 61.66462 | 60.89181 | 36953 ft | 526 kts | 75° |
| 2026-04-27 01:39 | 61.68236 | 61.04019 | 36950 ft | 526 kts | 75° |
| 2026-04-27 01:40 | 61.70020 | 61.18958 | 36946 ft | 526 kts | 75° |
| 2026-04-27 01:40 | 61.71796 | 61.33941 | 36944 ft | 526 kts | 75° |
| 2026-04-27 01:41 | 61.73552 | 61.48916 | 36946 ft | 526 kts | 75° |
| 2026-04-27 01:41 | 61.75289 | 61.63899 | 36946 ft | 525 kts | 76° |
| 2026-04-27 01:42 | 61.77006 | 61.78872 | 36943 ft | 524 kts | 76° |
| 2026-04-27 01:42 | 61.78707 | 61.93864 | 36944 ft | 524 kts | 76° |
| 2026-04-27 01:43 | 61.80379 | 62.08752 | 36941 ft | 523 kts | 76° |
| 2026-04-27 01:43 | 61.82043 | 62.23735 | 36936 ft | 523 kts | 76° |
| 2026-04-27 01:44 | 61.83692 | 62.38746 | 36939 ft | 523 kts | 76° |
| 2026-04-27 01:44 | 61.85323 | 62.53756 | 36934 ft | 523 kts | 76° |
| 2026-04-27 01:45 | 61.86939 | 62.68804 | 36930 ft | 523 kts | 76° |
| 2026-04-27 01:45 | 61.88538 | 62.83852 | 36930 ft | 523 kts | 77° |
| 2026-04-27 01:46 | 61.90111 | 62.98831 | 36923 ft | 523 kts | 77° |
| 2026-04-27 01:46 | 61.91678 | 63.13919 | 36924 ft | 523 kts | 77° |
| 2026-04-27 01:47 | 61.93058 | 63.29090 | 37047 ft | 525 kts | 84° |
| 2026-04-27 01:47 | 61.93292 | 63.36823 | 37366 ft | 524 kts | 87° |
| 2026-04-27 01:47 | 61.93439 | 63.44544 | 37702 ft | 523 kts | 88° |
| 2026-04-27 01:47 | 61.93542 | 63.52255 | 37994 ft | 522 kts | 89° |
| 2026-04-27 01:48 | 61.93622 | 63.59972 | 38268 ft | 522 kts | 89° |
| 2026-04-27 01:48 | 61.93692 | 63.67683 | 38522 ft | 522 kts | 89° |
| 2026-04-27 01:48 | 61.93759 | 63.75397 | 38739 ft | 522 kts | 89° |
| 2026-04-27 01:48 | 61.93825 | 63.83118 | 38875 ft | 523 kts | 89° |
| 2026-04-27 01:49 | 61.93890 | 63.90850 | 38900 ft | 523 kts | 89° |
| 2026-04-27 01:49 | 61.94015 | 64.06312 | 38901 ft | 523 kts | 89° |
| 2026-04-27 01:50 | 61.94125 | 64.21654 | 38901 ft | 523 kts | 89° |
| 2026-04-27 01:50 | 61.94218 | 64.37118 | 38898 ft | 523 kts | 89° |
| 2026-04-27 01:51 | 61.94293 | 64.52560 | 38894 ft | 523 kts | 90° |
| 2026-04-27 01:51 | 61.94351 | 64.68034 | 38892 ft | 523 kts | 90° |
| 2026-04-27 01:52 | 61.94391 | 64.83505 | 38884 ft | 523 kts | 90° |
| 2026-04-27 01:52 | 61.93997 | 64.98843 | 38885 ft | 523 kts | 95° |
| 2026-04-27 01:53 | 61.93352 | 65.14270 | 38882 ft | 523 kts | 96° |
| 2026-04-27 01:53 | 61.92656 | 65.29674 | 38876 ft | 524 kts | 96° |
| 2026-04-27 01:54 | 61.91947 | 65.45065 | 38883 ft | 524 kts | 96° |
| 2026-04-27 01:54 | 61.91229 | 65.60444 | 38877 ft | 524 kts | 96° |
| 2026-04-27 01:55 | 61.90496 | 65.75817 | 38877 ft | 523 kts | 96° |
| 2026-04-27 01:55 | 61.89752 | 65.91077 | 38872 ft | 523 kts | 96° |
| 2026-04-27 01:56 | 61.88595 | 66.14115 | 38868 ft | 523 kts | 96° |
| 2026-04-27 01:56 | 61.87802 | 66.29457 | 38866 ft | 523 kts | 96° |
| 2026-04-27 01:57 | 61.86994 | 66.44776 | 38863 ft | 523 kts | 97° |
| 2026-04-27 01:57 | 61.86166 | 66.60117 | 38860 ft | 523 kts | 97° |
| 2026-04-27 01:58 | 61.85468 | 66.72812 | 38859 ft | 523 kts | 97° |
| 2026-04-27 01:58 | 61.84471 | 66.90575 | 38858 ft | 522 kts | 97° |
| 2026-04-27 01:59 | 61.83596 | 67.05840 | 38854 ft | 522 kts | 97° |
| 2026-04-27 01:59 | 61.82703 | 67.21099 | 38846 ft | 522 kts | 97° |
| 2026-04-27 02:00 | 61.81949 | 67.33764 | 38841 ft | 522 kts | 97° |
| 2026-04-27 02:00 | 61.81025 | 67.49017 | 38833 ft | 522 kts | 98° |
| 2026-04-27 02:01 | 61.80086 | 67.64233 | 38827 ft | 522 kts | 98° |
| 2026-04-27 02:01 | 61.79129 | 67.79451 | 38823 ft | 522 kts | 98° |
| 2026-04-27 02:02 | 61.78156 | 67.94655 | 38815 ft | 522 kts | 98° |
| 2026-04-27 02:02 | 61.77166 | 68.09844 | 38814 ft | 522 kts | 98° |
| 2026-04-27 02:03 | 61.76167 | 68.24935 | 38818 ft | 522 kts | 98° |
| 2026-04-27 02:03 | 61.75134 | 68.40097 | 38814 ft | 522 kts | 99° |
| 2026-04-27 02:04 | 61.74085 | 68.55256 | 38811 ft | 522 kts | 99° |
| 2026-04-27 02:04 | 61.73023 | 68.70378 | 38808 ft | 521 kts | 99° |
| 2026-04-27 02:05 | 61.71942 | 68.85528 | 38805 ft | 521 kts | 99° |
| 2026-04-27 02:05 | 61.70847 | 69.00642 | 38799 ft | 521 kts | 99° |
| 2026-04-27 02:06 | 61.69734 | 69.15757 | 38796 ft | 521 kts | 99° |
| 2026-04-27 02:06 | 61.68613 | 69.30747 | 38793 ft | 521 kts | 99° |
| 2026-04-27 02:07 | 61.67467 | 69.45837 | 38788 ft | 521 kts | 99° |
| 2026-04-27 02:07 | 61.66305 | 69.60912 | 38789 ft | 521 kts | 100° |
| 2026-04-27 02:08 | 61.65129 | 69.75946 | 38793 ft | 521 kts | 100° |
| 2026-04-27 02:08 | 61.63935 | 69.90983 | 38793 ft | 521 kts | 100° |
| 2026-04-27 02:09 | 61.62724 | 70.06019 | 38797 ft | 521 kts | 100° |
| 2026-04-27 02:09 | 61.61497 | 70.21026 | 38798 ft | 521 kts | 101° |
| 2026-04-27 02:10 | 61.60253 | 70.36046 | 38802 ft | 521 kts | 101° |
| 2026-04-27 02:10 | 61.59000 | 70.50946 | 38798 ft | 521 kts | 101° |
| 2026-04-27 02:11 | 61.57725 | 70.65921 | 38803 ft | 521 kts | 101° |
| 2026-04-27 02:11 | 61.56432 | 70.80885 | 38808 ft | 521 kts | 101° |
| 2026-04-27 02:12 | 61.55123 | 70.95841 | 38811 ft | 521 kts | 101° |
| 2026-04-27 02:12 | 61.53801 | 71.10784 | 38801 ft | 521 kts | 101° |
| 2026-04-27 02:13 | 61.52471 | 71.25707 | 38792 ft | 521 kts | 101° |
| 2026-04-27 02:13 | 61.51126 | 71.40616 | 38791 ft | 521 kts | 102° |
| 2026-04-27 02:14 | 61.49762 | 71.55536 | 38788 ft | 521 kts | 102° |
| 2026-04-27 02:14 | 61.48391 | 71.70338 | 38774 ft | 521 kts | 102° |
| 2026-04-27 02:15 | 61.46996 | 71.85209 | 38772 ft | 521 kts | 102° |
| 2026-04-27 02:15 | 61.45584 | 72.00089 | 38764 ft | 521 kts | 102° |
| 2026-04-27 02:16 | 61.44150 | 72.14933 | 38754 ft | 521 kts | 103° |
| 2026-04-27 02:16 | 61.42681 | 72.29775 | 38746 ft | 521 kts | 103° |
| 2026-04-27 02:17 | 61.41198 | 72.44592 | 38746 ft | 521 kts | 103° |
| 2026-04-27 02:17 | 61.39714 | 72.59298 | 38735 ft | 521 kts | 103° |
| 2026-04-27 02:18 | 61.38205 | 72.74093 | 38730 ft | 520 kts | 103° |
| 2026-04-27 02:18 | 61.36682 | 72.88842 | 38719 ft | 520 kts | 103° |
| 2026-04-27 02:19 | 61.35146 | 73.03593 | 38718 ft | 520 kts | 103° |
| 2026-04-27 02:19 | 61.33597 | 73.18310 | 38715 ft | 520 kts | 104° |
| 2026-04-27 02:20 | 61.32039 | 73.32933 | 38718 ft | 520 kts | 104° |
| 2026-04-27 02:20 | 61.30456 | 73.47626 | 38718 ft | 520 kts | 104° |
| 2026-04-27 02:21 | 61.28858 | 73.62298 | 38715 ft | 520 kts | 104° |
| 2026-04-27 02:21 | 61.27245 | 73.76940 | 38711 ft | 519 kts | 104° |
| 2026-04-27 02:22 | 61.25617 | 73.91570 | 38700 ft | 519 kts | 104° |
| 2026-04-27 02:22 | 61.23974 | 74.06176 | 38689 ft | 519 kts | 105° |
| 2026-04-27 02:23 | 61.22316 | 74.20761 | 38683 ft | 519 kts | 105° |
| 2026-04-27 02:23 | 61.20645 | 74.35334 | 38687 ft | 519 kts | 105° |
| 2026-04-27 02:24 | 61.18960 | 74.49871 | 38681 ft | 518 kts | 105° |
| 2026-04-27 02:24 | 61.17266 | 74.64307 | 38685 ft | 518 kts | 105° |
| 2026-04-27 02:25 | 61.15548 | 74.78812 | 38678 ft | 518 kts | 105° |
| 2026-04-27 02:25 | 61.13814 | 74.93317 | 38674 ft | 518 kts | 106° |
| 2026-04-27 02:26 | 61.12068 | 75.07782 | 38668 ft | 518 kts | 106° |
| 2026-04-27 02:26 | 61.10316 | 75.22151 | 38669 ft | 518 kts | 106° |
| 2026-04-27 02:27 | 61.08537 | 75.36592 | 38668 ft | 518 kts | 106° |
| 2026-04-27 02:27 | 61.06740 | 75.51047 | 38672 ft | 518 kts | 107° |
| 2026-04-27 02:28 | 61.04942 | 75.65369 | 38670 ft | 518 kts | 107° |
| 2026-04-27 02:28 | 61.03115 | 75.79782 | 38667 ft | 518 kts | 107° |
| 2026-04-27 02:29 | 61.01277 | 75.94142 | 38661 ft | 518 kts | 107° |
| 2026-04-27 02:29 | 60.99423 | 76.08496 | 38662 ft | 518 kts | 107° |
| 2026-04-27 02:30 | 60.97555 | 76.22817 | 38660 ft | 517 kts | 107° |
| 2026-04-27 02:30 | 60.95683 | 76.37043 | 38662 ft | 517 kts | 108° |
| 2026-04-27 02:31 | 60.93525 | 76.51131 | 38661 ft | 515 kts | 113° |
| 2026-04-27 02:31 | 60.90938 | 76.64884 | 38662 ft | 515 kts | 114° |
| 2026-04-27 02:32 | 60.88279 | 76.78533 | 38663 ft | 515 kts | 115° |
| 2026-04-27 02:32 | 60.85604 | 76.92161 | 38664 ft | 515 kts | 115° |
| 2026-04-27 02:33 | 60.82924 | 77.05785 | 38670 ft | 515 kts | 115° |
| 2026-04-27 02:33 | 60.80263 | 77.19389 | 38684 ft | 515 kts | 114° |
| 2026-04-27 02:34 | 60.77612 | 77.32916 | 38684 ft | 514 kts | 115° |
| 2026-04-27 02:34 | 60.74933 | 77.46482 | 38682 ft | 514 kts | 115° |
| 2026-04-27 02:35 | 60.72257 | 77.60040 | 38686 ft | 515 kts | 113° |
| 2026-04-27 02:35 | 60.70674 | 77.74352 | 38697 ft | 520 kts | 99° |
| 2026-04-27 02:36 | 60.69898 | 77.89046 | 38699 ft | 521 kts | 97° |
| 2026-04-27 02:36 | 60.69234 | 78.03784 | 38700 ft | 521 kts | 97° |
| 2026-04-27 02:37 | 60.68544 | 78.18500 | 38706 ft | 521 kts | 98° |
| 2026-04-27 02:37 | 60.67813 | 78.33198 | 38711 ft | 520 kts | 98° |
| 2026-04-27 02:38 | 60.67056 | 78.47888 | 38715 ft | 520 kts | 98° |
| 2026-04-27 02:38 | 60.66283 | 78.62545 | 38719 ft | 520 kts | 98° |
| 2026-04-27 02:39 | 60.65494 | 78.77198 | 38724 ft | 520 kts | 99° |
| 2026-04-27 02:39 | 60.64691 | 78.91842 | 38724 ft | 520 kts | 99° |
| 2026-04-27 02:40 | 60.63877 | 79.06387 | 38726 ft | 519 kts | 99° |
| 2026-04-27 02:40 | 60.63043 | 79.21012 | 38725 ft | 519 kts | 99° |
| 2026-04-27 02:41 | 60.62190 | 79.35655 | 38726 ft | 519 kts | 99° |
| 2026-04-27 02:41 | 60.61325 | 79.50251 | 38729 ft | 519 kts | 99° |
| 2026-04-27 02:42 | 60.60448 | 79.64758 | 38727 ft | 519 kts | 100° |
| 2026-04-27 02:42 | 60.59551 | 79.79327 | 38726 ft | 519 kts | 100° |
| 2026-04-27 02:43 | 60.58637 | 79.93895 | 38720 ft | 519 kts | 100° |
| 2026-04-27 02:43 | 60.57709 | 80.08442 | 38721 ft | 519 kts | 100° |
| 2026-04-27 02:44 | 60.56764 | 80.22996 | 38726 ft | 519 kts | 101° |
| 2026-04-27 02:44 | 60.55807 | 80.37539 | 38720 ft | 519 kts | 101° |
| 2026-04-27 02:45 | 60.54833 | 80.52061 | 38718 ft | 519 kts | 101° |
| 2026-04-27 02:45 | 60.54010 | 80.64145 | 38716 ft | 519 kts | 101° |
| 2026-04-27 02:46 | 60.53007 | 80.78671 | 38724 ft | 519 kts | 101° |
| 2026-04-27 02:46 | 60.51988 | 80.93176 | 38718 ft | 519 kts | 101° |
| 2026-04-27 02:47 | 60.50955 | 81.07671 | 38721 ft | 519 kts | 102° |
| 2026-04-27 02:47 | 60.49906 | 81.22147 | 38715 ft | 519 kts | 102° |
| 2026-04-27 02:48 | 60.48838 | 81.36659 | 38720 ft | 519 kts | 102° |
| 2026-04-27 02:48 | 60.47757 | 81.51122 | 38721 ft | 519 kts | 102° |
| 2026-04-27 02:49 | 60.46666 | 81.65505 | 38716 ft | 519 kts | 102° |
| 2026-04-27 02:49 | 60.45554 | 81.79947 | 38718 ft | 519 kts | 102° |
| 2026-04-27 02:50 | 60.44424 | 81.94405 | 38719 ft | 519 kts | 102° |
| 2026-04-27 02:50 | 60.43279 | 82.08853 | 38715 ft | 518 kts | 103° |
| 2026-04-27 02:51 | 60.42122 | 82.23251 | 38718 ft | 518 kts | 103° |
| 2026-04-27 02:51 | 60.40954 | 82.37566 | 38716 ft | 518 kts | 103° |
| 2026-04-27 02:52 | 60.39765 | 82.51949 | 38716 ft | 518 kts | 103° |
| 2026-04-27 02:52 | 60.38561 | 82.66329 | 38718 ft | 518 kts | 103° |
| 2026-04-27 02:53 | 60.37341 | 82.80678 | 38718 ft | 518 kts | 103° |
| 2026-04-27 02:53 | 60.36114 | 82.94931 | 38718 ft | 517 kts | 103° |
| 2026-04-27 02:54 | 60.34867 | 83.09235 | 38717 ft | 517 kts | 104° |
| 2026-04-27 02:54 | 60.33603 | 83.23534 | 38721 ft | 517 kts | 104° |
| 2026-04-27 02:55 | 60.32325 | 83.37815 | 38714 ft | 517 kts | 104° |
| 2026-04-27 02:55 | 60.31031 | 83.52088 | 38716 ft | 517 kts | 104° |
| 2026-04-27 02:56 | 60.29723 | 83.66340 | 38718 ft | 516 kts | 104° |
| 2026-04-27 02:56 | 60.28401 | 83.80570 | 38717 ft | 516 kts | 104° |
| 2026-04-27 02:57 | 60.27072 | 83.94694 | 38722 ft | 516 kts | 104° |
| 2026-04-27 02:57 | 60.25719 | 84.08901 | 38718 ft | 516 kts | 105° |
| 2026-04-27 02:58 | 60.24352 | 84.23089 | 38721 ft | 516 kts | 105° |
| 2026-04-27 02:58 | 60.22970 | 84.37265 | 38726 ft | 516 kts | 105° |
| 2026-04-27 02:59 | 60.21573 | 84.51423 | 38726 ft | 516 kts | 105° |
| 2026-04-27 02:59 | 60.20162 | 84.65571 | 38721 ft | 516 kts | 105° |
| 2026-04-27 03:00 | 60.18735 | 84.79709 | 38725 ft | 515 kts | 106° |
| 2026-04-27 03:00 | 60.17536 | 84.93854 | 38724 ft | 517 kts | 102° |
| 2026-04-27 03:01 | 60.16487 | 85.08166 | 38727 ft | 517 kts | 102° |
| 2026-04-27 03:01 | 60.15400 | 85.22434 | 38730 ft | 517 kts | 103° |
| 2026-04-27 03:02 | 60.14257 | 85.36689 | 38734 ft | 516 kts | 103° |
| 2026-04-27 03:02 | 60.13087 | 85.50891 | 38738 ft | 516 kts | 103° |
| 2026-04-27 03:03 | 60.11308 | 85.72113 | 38740 ft | 516 kts | 104° |
| 2026-04-27 03:04 | 60.10100 | 85.86312 | 38746 ft | 516 kts | 104° |
| 2026-04-27 03:04 | 60.08877 | 86.00504 | 38744 ft | 516 kts | 104° |
| 2026-04-27 03:05 | 60.07639 | 86.14680 | 38744 ft | 516 kts | 104° |
| 2026-04-27 03:05 | 60.06386 | 86.28849 | 38744 ft | 517 kts | 104° |
| 2026-04-27 03:06 | 60.05117 | 86.43013 | 38750 ft | 517 kts | 104° |
| 2026-04-27 03:06 | 60.03833 | 86.57162 | 38753 ft | 517 kts | 104° |
| 2026-04-27 03:07 | 60.02535 | 86.71293 | 38737 ft | 517 kts | 104° |
| 2026-04-27 03:07 | 60.01220 | 86.85428 | 38751 ft | 517 kts | 104° |
| 2026-04-27 03:08 | 59.99900 | 86.99456 | 38753 ft | 517 kts | 104° |
| 2026-04-27 03:08 | 59.98555 | 87.13574 | 38752 ft | 517 kts | 105° |
| 2026-04-27 03:09 | 59.97193 | 87.27695 | 38754 ft | 517 kts | 105° |
| 2026-04-27 03:09 | 59.95818 | 87.41785 | 38752 ft | 516 kts | 105° |
| 2026-04-27 03:10 | 59.94440 | 87.55748 | 38753 ft | 515 kts | 105° |
| 2026-04-27 03:10 | 59.93039 | 87.69777 | 38759 ft | 514 kts | 105° |
| 2026-04-27 03:11 | 59.91625 | 87.83785 | 38755 ft | 514 kts | 105° |
| 2026-04-27 03:11 | 59.90202 | 87.97722 | 38757 ft | 513 kts | 105° |
| 2026-04-27 03:12 | 59.88774 | 88.11546 | 38759 ft | 512 kts | 105° |
| 2026-04-27 03:12 | 59.87325 | 88.25420 | 38760 ft | 511 kts | 105° |
| 2026-04-27 03:13 | 59.85865 | 88.39252 | 38759 ft | 510 kts | 106° |
| 2026-04-27 03:13 | 59.84391 | 88.53065 | 38758 ft | 510 kts | 106° |
| 2026-04-27 03:14 | 59.82904 | 88.66850 | 38761 ft | 509 kts | 106° |
| 2026-04-27 03:14 | 59.81416 | 88.80502 | 38762 ft | 509 kts | 106° |
| 2026-04-27 03:15 | 59.79904 | 88.94232 | 38763 ft | 508 kts | 106° |
| 2026-04-27 03:15 | 59.78377 | 89.07953 | 38769 ft | 508 kts | 106° |
| 2026-04-27 03:16 | 59.76840 | 89.21629 | 38772 ft | 508 kts | 106° |
| 2026-04-27 03:16 | 59.75289 | 89.35292 | 38771 ft | 507 kts | 107° |
| 2026-04-27 03:17 | 59.73725 | 89.48939 | 38777 ft | 507 kts | 107° |
| 2026-04-27 03:17 | 59.72145 | 89.62550 | 38776 ft | 506 kts | 107° |
| 2026-04-27 03:18 | 59.70548 | 89.76153 | 38779 ft | 506 kts | 107° |
| 2026-04-27 03:18 | 59.68942 | 89.89721 | 38787 ft | 506 kts | 107° |
| 2026-04-27 03:19 | 59.67333 | 90.03185 | 38787 ft | 506 kts | 107° |
| 2026-04-27 03:19 | 59.65700 | 90.16719 | 38793 ft | 506 kts | 107° |
| 2026-04-27 03:20 | 59.64052 | 90.30254 | 38791 ft | 505 kts | 107° |
| 2026-04-27 03:20 | 59.62391 | 90.43759 | 38800 ft | 505 kts | 107° |
| 2026-04-27 03:21 | 59.60720 | 90.57232 | 38803 ft | 505 kts | 107° |
| 2026-04-27 03:21 | 59.59034 | 90.70694 | 38803 ft | 505 kts | 107° |
| 2026-04-27 03:22 | 59.57336 | 90.84132 | 38809 ft | 505 kts | 107° |
| 2026-04-27 03:22 | 59.55624 | 90.97556 | 38812 ft | 504 kts | 108° |
| 2026-04-27 03:23 | 59.53901 | 91.10948 | 38811 ft | 504 kts | 108° |
| 2026-04-27 03:23 | 59.52173 | 91.24252 | 38819 ft | 504 kts | 108° |
| 2026-04-27 03:24 | 59.50423 | 91.37618 | 38818 ft | 503 kts | 108° |
| 2026-04-27 03:24 | 59.48663 | 91.50942 | 38821 ft | 503 kts | 108° |
| 2026-04-27 03:25 | 59.46889 | 91.64248 | 38828 ft | 502 kts | 108° |
| 2026-04-27 03:25 | 59.45104 | 91.77522 | 38821 ft | 502 kts | 108° |
| 2026-04-27 03:26 | 59.43310 | 91.90756 | 38822 ft | 501 kts | 108° |
| 2026-04-27 03:26 | 59.41504 | 92.03961 | 38825 ft | 500 kts | 108° |
| 2026-04-27 03:27 | 59.39686 | 92.17140 | 38823 ft | 499 kts | 108° |
| 2026-04-27 03:27 | 59.37870 | 92.30197 | 38828 ft | 499 kts | 108° |
| 2026-04-27 03:28 | 59.36028 | 92.43336 | 38828 ft | 499 kts | 109° |
| 2026-04-27 03:28 | 59.34173 | 92.56455 | 38834 ft | 499 kts | 109° |
| 2026-04-27 03:29 | 59.32307 | 92.69545 | 38843 ft | 499 kts | 109° |
| 2026-04-27 03:29 | 59.30425 | 92.82641 | 38845 ft | 499 kts | 109° |
| 2026-04-27 03:30 | 59.28534 | 92.95701 | 38849 ft | 499 kts | 109° |
| 2026-04-27 03:30 | 59.26637 | 93.08685 | 38852 ft | 499 kts | 109° |
| 2026-04-27 03:31 | 59.24715 | 93.21738 | 38856 ft | 500 kts | 109° |
| 2026-04-27 03:31 | 59.22766 | 93.34787 | 38855 ft | 499 kts | 111° |
| 2026-04-27 03:32 | 59.20105 | 93.47228 | 38861 ft | 496 kts | 118° |
| 2026-04-27 03:32 | 59.17650 | 93.57343 | 38862 ft | 496 kts | 119° |
| 2026-04-27 03:33 | 59.14142 | 93.71411 | 38864 ft | 496 kts | 119° |
| 2026-04-27 03:33 | 59.11121 | 93.83491 | 38866 ft | 497 kts | 119° |
| 2026-04-27 03:34 | 59.08605 | 93.93546 | 38871 ft | 497 kts | 119° |
| 2026-04-27 03:34 | 59.05570 | 94.05639 | 38876 ft | 498 kts | 119° |
| 2026-04-27 03:35 | 59.02522 | 94.17716 | 38881 ft | 498 kts | 119° |
| 2026-04-27 03:35 | 58.99457 | 94.29792 | 38891 ft | 499 kts | 119° |
| 2026-04-27 03:36 | 58.96382 | 94.41838 | 38899 ft | 499 kts | 119° |
| 2026-04-27 03:36 | 58.93289 | 94.53886 | 38909 ft | 499 kts | 119° |
| 2026-04-27 03:37 | 58.90187 | 94.65909 | 38908 ft | 499 kts | 119° |
| 2026-04-27 03:37 | 58.87095 | 94.77831 | 38914 ft | 499 kts | 119° |
| 2026-04-27 03:38 | 58.83972 | 94.89805 | 38917 ft | 499 kts | 119° |
| 2026-04-27 03:38 | 58.80837 | 95.01762 | 38924 ft | 498 kts | 119° |
| 2026-04-27 03:39 | 58.77696 | 95.13675 | 38925 ft | 498 kts | 119° |
| 2026-04-27 03:39 | 58.74564 | 95.25495 | 38932 ft | 498 kts | 118° |
| 2026-04-27 03:40 | 58.71400 | 95.37374 | 38939 ft | 498 kts | 118° |
| 2026-04-27 03:40 | 58.68234 | 95.49197 | 38939 ft | 497 kts | 118° |
| 2026-04-27 03:41 | 58.65056 | 95.61002 | 38950 ft | 497 kts | 118° |
| 2026-04-27 03:41 | 58.61869 | 95.72781 | 38950 ft | 497 kts | 118° |
| 2026-04-27 03:42 | 58.58673 | 95.84534 | 38958 ft | 497 kts | 118° |
| 2026-04-27 03:42 | 58.55480 | 95.96207 | 38963 ft | 497 kts | 118° |
| 2026-04-27 03:43 | 58.52258 | 96.07932 | 38970 ft | 497 kts | 118° |
| 2026-04-27 03:43 | 58.49025 | 96.19634 | 38976 ft | 497 kts | 118° |
| 2026-04-27 03:44 | 58.45781 | 96.31316 | 38985 ft | 498 kts | 119° |
| 2026-04-27 03:44 | 58.42525 | 96.42986 | 38981 ft | 497 kts | 119° |
| 2026-04-27 03:45 | 58.39288 | 96.54556 | 38988 ft | 497 kts | 118° |
| 2026-04-27 03:45 | 58.36024 | 96.66185 | 38990 ft | 497 kts | 119° |
| 2026-04-27 03:46 | 58.32749 | 96.77796 | 38991 ft | 498 kts | 119° |
| 2026-04-27 03:46 | 58.29469 | 96.89372 | 38995 ft | 498 kts | 119° |
| 2026-04-27 03:47 | 58.26167 | 97.00963 | 39002 ft | 498 kts | 119° |
| 2026-04-27 03:47 | 58.22861 | 97.12509 | 39004 ft | 498 kts | 119° |
| 2026-04-27 03:48 | 58.19539 | 97.24056 | 39002 ft | 499 kts | 119° |
| 2026-04-27 03:48 | 58.16207 | 97.35578 | 39004 ft | 499 kts | 119° |
| 2026-04-27 03:49 | 58.12861 | 97.47093 | 39005 ft | 499 kts | 119° |
| 2026-04-27 03:49 | 58.09507 | 97.58576 | 39010 ft | 499 kts | 119° |
| 2026-04-27 03:50 | 58.06143 | 97.70038 | 39016 ft | 499 kts | 119° |
| 2026-04-27 03:50 | 58.02789 | 97.81407 | 39021 ft | 499 kts | 119° |
| 2026-04-27 03:51 | 57.99404 | 97.92824 | 39025 ft | 499 kts | 119° |
| 2026-04-27 03:51 | 57.96011 | 98.04215 | 39026 ft | 498 kts | 119° |
| 2026-04-27 03:52 | 57.92603 | 98.15598 | 39029 ft | 498 kts | 119° |
| 2026-04-27 03:52 | 57.89190 | 98.26947 | 39035 ft | 498 kts | 119° |
| 2026-04-27 03:53 | 57.85765 | 98.38276 | 39039 ft | 498 kts | 119° |
| 2026-04-27 03:53 | 57.82356 | 98.49499 | 39045 ft | 498 kts | 119° |
| 2026-04-27 03:54 | 57.78913 | 98.60781 | 39047 ft | 498 kts | 119° |
| 2026-04-27 03:54 | 57.75458 | 98.72044 | 39054 ft | 498 kts | 119° |
| 2026-04-27 03:55 | 57.71995 | 98.83281 | 39056 ft | 497 kts | 119° |
| 2026-04-27 03:55 | 57.68555 | 98.94396 | 39062 ft | 497 kts | 119° |
| 2026-04-27 03:56 | 57.65180 | 99.05660 | 39068 ft | 496 kts | 117° |
| 2026-04-27 03:56 | 57.61958 | 99.17046 | 39073 ft | 496 kts | 116° |
| 2026-04-27 03:57 | 57.58728 | 99.28405 | 39075 ft | 495 kts | 117° |
| 2026-04-27 03:57 | 57.55460 | 99.39721 | 39081 ft | 495 kts | 117° |
| 2026-04-27 03:58 | 57.52170 | 99.51005 | 39078 ft | 495 kts | 117° |
| 2026-04-27 03:58 | 57.48870 | 99.62250 | 39086 ft | 495 kts | 117° |
| 2026-04-27 03:59 | 57.45580 | 99.73418 | 39086 ft | 495 kts | 117° |
| 2026-04-27 03:59 | 57.42257 | 99.84647 | 39091 ft | 496 kts | 117° |
| 2026-04-27 04:00 | 57.38929 | 99.95840 | 39092 ft | 496 kts | 117° |
| 2026-04-27 04:00 | 57.35589 | 100.07020 | 39096 ft | 496 kts | 117° |
| 2026-04-27 04:01 | 57.32235 | 100.18193 | 39102 ft | 496 kts | 117° |
| 2026-04-27 04:01 | 57.28872 | 100.29337 | 39108 ft | 496 kts | 117° |
| 2026-04-27 04:02 | 57.25495 | 100.40480 | 39107 ft | 497 kts | 117° |
| 2026-04-27 04:02 | 57.22108 | 100.51601 | 39112 ft | 497 kts | 117° |
| 2026-04-27 04:03 | 57.18729 | 100.62643 | 39113 ft | 497 kts | 117° |
| 2026-04-27 04:03 | 57.15315 | 100.73749 | 39123 ft | 498 kts | 117° |
| 2026-04-27 04:04 | 57.11890 | 100.84840 | 39140 ft | 498 kts | 117° |
| 2026-04-27 04:04 | 57.08450 | 100.95936 | 39131 ft | 499 kts | 117° |
| 2026-04-27 04:05 | 57.05002 | 101.07002 | 39142 ft | 499 kts | 117° |
| 2026-04-27 04:05 | 57.01535 | 101.18056 | 39149 ft | 500 kts | 118° |
| 2026-04-27 04:06 | 56.98067 | 101.29067 | 39155 ft | 500 kts | 118° |
| 2026-04-27 04:06 | 56.94574 | 101.40108 | 39156 ft | 501 kts | 118° |
| 2026-04-27 04:07 | 56.89305 | 101.56673 | 39162 ft | 501 kts | 118° |
| 2026-04-27 04:07 | 56.85803 | 101.67624 | 39167 ft | 502 kts | 118° |
| 2026-04-27 04:08 | 56.82265 | 101.78627 | 39145 ft | 503 kts | 118° |
| 2026-04-27 04:08 | 56.78707 | 101.89646 | 39147 ft | 503 kts | 118° |
| 2026-04-27 04:09 | 56.75141 | 102.00642 | 39155 ft | 503 kts | 118° |
| 2026-04-27 04:09 | 56.71571 | 102.11631 | 39157 ft | 504 kts | 118° |
| 2026-04-27 04:10 | 56.67986 | 102.22611 | 39163 ft | 504 kts | 118° |
| 2026-04-27 04:10 | 56.64388 | 102.33580 | 39173 ft | 505 kts | 118° |
| 2026-04-27 04:11 | 56.60777 | 102.44540 | 39174 ft | 506 kts | 118° |
| 2026-04-27 04:11 | 56.57178 | 102.55415 | 39189 ft | 506 kts | 118° |
| 2026-04-27 04:12 | 56.53541 | 102.66353 | 39196 ft | 506 kts | 118° |
| 2026-04-27 04:12 | 56.49892 | 102.77281 | 39213 ft | 506 kts | 118° |
| 2026-04-27 04:13 | 56.46234 | 102.88182 | 39223 ft | 507 kts | 118° |
| 2026-04-27 04:13 | 56.42587 | 102.99007 | 39229 ft | 507 kts | 118° |
| 2026-04-27 04:14 | 56.38909 | 103.09871 | 39231 ft | 507 kts | 118° |
| 2026-04-27 04:14 | 56.35217 | 103.20728 | 39236 ft | 507 kts | 118° |
| 2026-04-27 04:15 | 56.31520 | 103.31550 | 39228 ft | 507 kts | 118° |
| 2026-04-27 04:15 | 56.27812 | 103.42357 | 39240 ft | 507 kts | 118° |
| 2026-04-27 04:16 | 56.24098 | 103.53131 | 39240 ft | 507 kts | 118° |
| 2026-04-27 04:16 | 56.20371 | 103.63895 | 39245 ft | 507 kts | 118° |
| 2026-04-27 04:17 | 56.16629 | 103.74655 | 39252 ft | 507 kts | 118° |
| 2026-04-27 04:17 | 56.12907 | 103.85311 | 39254 ft | 507 kts | 118° |
| 2026-04-27 04:18 | 56.09155 | 103.96005 | 39257 ft | 507 kts | 118° |
| 2026-04-27 04:18 | 56.05388 | 104.06694 | 39259 ft | 507 kts | 119° |
| 2026-04-27 04:19 | 56.01613 | 104.17360 | 39262 ft | 507 kts | 119° |
| 2026-04-27 04:19 | 55.97828 | 104.28009 | 39270 ft | 507 kts | 119° |
| 2026-04-27 04:20 | 55.94676 | 104.36841 | 39276 ft | 507 kts | 119° |
| 2026-04-27 04:20 | 55.90870 | 104.47465 | 39278 ft | 508 kts | 119° |
| 2026-04-27 04:21 | 55.87058 | 104.58070 | 39281 ft | 508 kts | 119° |
| 2026-04-27 04:21 | 55.83230 | 104.68669 | 39287 ft | 508 kts | 119° |
| 2026-04-27 04:22 | 55.79393 | 104.79251 | 39291 ft | 508 kts | 119° |
| 2026-04-27 04:22 | 55.75567 | 104.89758 | 39296 ft | 508 kts | 119° |
| 2026-04-27 04:23 | 55.71717 | 105.00285 | 39302 ft | 508 kts | 119° |
| 2026-04-27 04:23 | 55.67849 | 105.10788 | 39305 ft | 509 kts | 120° |
| 2026-04-27 04:24 | 55.63912 | 105.21204 | 39310 ft | 509 kts | 120° |
| 2026-04-27 04:24 | 55.59948 | 105.31609 | 39314 ft | 509 kts | 120° |
| 2026-04-27 04:25 | 55.55994 | 105.41981 | 39317 ft | 509 kts | 120° |
| 2026-04-27 04:25 | 55.52037 | 105.52337 | 39318 ft | 508 kts | 121° |
| 2026-04-27 04:26 | 55.48074 | 105.62676 | 39318 ft | 508 kts | 121° |
| 2026-04-27 04:26 | 55.44125 | 105.72933 | 39321 ft | 508 kts | 121° |
| 2026-04-27 04:27 | 55.40141 | 105.83235 | 39317 ft | 508 kts | 121° |
| 2026-04-27 04:27 | 55.36146 | 105.93522 | 39322 ft | 508 kts | 121° |
| 2026-04-27 04:28 | 55.32160 | 106.03795 | 39331 ft | 508 kts | 121° |
| 2026-04-27 04:28 | 55.28184 | 106.13968 | 39329 ft | 508 kts | 121° |
| 2026-04-27 04:29 | 55.24169 | 106.24167 | 39333 ft | 508 kts | 121° |
| 2026-04-27 04:29 | 55.20147 | 106.34352 | 39328 ft | 508 kts | 121° |
| 2026-04-27 04:30 | 55.16126 | 106.44506 | 39335 ft | 507 kts | 121° |
| 2026-04-27 04:30 | 55.12096 | 106.54643 | 39337 ft | 508 kts | 121° |
| 2026-04-27 04:31 | 55.08046 | 106.64766 | 39271 ft | 508 kts | 122° |
| 2026-04-27 04:31 | 55.04044 | 106.74722 | 39340 ft | 502 kts | 121° |
| 2026-04-27 04:32 | 55.00036 | 106.84670 | 39349 ft | 501 kts | 121° |
| 2026-04-27 04:32 | 54.96021 | 106.94601 | 39351 ft | 501 kts | 121° |
| 2026-04-27 04:33 | 54.92004 | 107.04495 | 39356 ft | 500 kts | 121° |
| 2026-04-27 04:33 | 54.87977 | 107.14373 | 39353 ft | 500 kts | 121° |
| 2026-04-27 04:34 | 54.83946 | 107.24218 | 39360 ft | 500 kts | 121° |
| 2026-04-27 04:34 | 54.79938 | 107.33988 | 39364 ft | 500 kts | 121° |
| 2026-04-27 04:35 | 54.75898 | 107.43784 | 39364 ft | 499 kts | 121° |
| 2026-04-27 04:35 | 54.71848 | 107.53561 | 39363 ft | 499 kts | 121° |
| 2026-04-27 04:36 | 54.67798 | 107.63306 | 39364 ft | 499 kts | 121° |
| 2026-04-27 04:36 | 54.63743 | 107.73027 | 39366 ft | 499 kts | 121° |
| 2026-04-27 04:37 | 54.59681 | 107.82745 | 39371 ft | 499 kts | 122° |
| 2026-04-27 04:37 | 54.55605 | 107.92434 | 39371 ft | 499 kts | 122° |
| 2026-04-27 04:38 | 54.51523 | 108.02097 | 39378 ft | 499 kts | 122° |
| 2026-04-27 04:38 | 54.47462 | 108.11678 | 39389 ft | 499 kts | 122° |
| 2026-04-27 04:39 | 54.43365 | 108.21310 | 39405 ft | 499 kts | 122° |
| 2026-04-27 04:39 | 54.39262 | 108.30921 | 39422 ft | 499 kts | 122° |
| 2026-04-27 04:40 | 54.35154 | 108.40508 | 39441 ft | 499 kts | 122° |
| 2026-04-27 04:40 | 54.31032 | 108.50088 | 39461 ft | 499 kts | 122° |
| 2026-04-27 04:41 | 54.26904 | 108.59649 | 39475 ft | 499 kts | 122° |
| 2026-04-27 04:41 | 54.22772 | 108.69194 | 39486 ft | 499 kts | 122° |
| 2026-04-27 04:42 | 54.18653 | 108.78657 | 39495 ft | 499 kts | 122° |
| 2026-04-27 04:42 | 54.14497 | 108.88159 | 39495 ft | 500 kts | 122° |
| 2026-04-27 04:43 | 54.10332 | 108.97648 | 39495 ft | 500 kts | 122° |
| 2026-04-27 04:43 | 54.06158 | 109.07129 | 39492 ft | 500 kts | 122° |
| 2026-04-27 04:44 | 54.01978 | 109.16587 | 39480 ft | 500 kts | 122° |
| 2026-04-27 04:44 | 53.97792 | 109.26022 | 39475 ft | 500 kts | 122° |
| 2026-04-27 04:45 | 53.93618 | 109.35396 | 39466 ft | 500 kts | 123° |
| 2026-04-27 04:45 | 53.89409 | 109.44813 | 39453 ft | 500 kts | 123° |
| 2026-04-27 04:46 | 53.85198 | 109.54197 | 39421 ft | 500 kts | 123° |
| 2026-04-27 04:46 | 53.80976 | 109.63567 | 39408 ft | 500 kts | 123° |
| 2026-04-27 04:47 | 53.76747 | 109.72919 | 39409 ft | 500 kts | 123° |
| 2026-04-27 04:47 | 53.72507 | 109.82273 | 39396 ft | 500 kts | 123° |
| 2026-04-27 04:48 | 53.68292 | 109.91529 | 39396 ft | 500 kts | 123° |
| 2026-04-27 04:48 | 53.64042 | 110.00827 | 39395 ft | 501 kts | 123° |
| 2026-04-27 04:49 | 53.59783 | 110.10121 | 39388 ft | 501 kts | 123° |
| 2026-04-27 04:49 | 53.55510 | 110.19383 | 39383 ft | 501 kts | 123° |
| 2026-04-27 04:50 | 53.51224 | 110.28638 | 39383 ft | 501 kts | 123° |
| 2026-04-27 04:50 | 53.46961 | 110.37817 | 39377 ft | 501 kts | 123° |
| 2026-04-27 04:51 | 53.42660 | 110.47050 | 39382 ft | 501 kts | 123° |
| 2026-04-27 04:51 | 53.38360 | 110.56243 | 39382 ft | 501 kts | 124° |
| 2026-04-27 04:52 | 53.34056 | 110.65413 | 39372 ft | 501 kts | 124° |
| 2026-04-27 04:52 | 53.29739 | 110.74576 | 39371 ft | 501 kts | 124° |
| 2026-04-27 04:53 | 53.25441 | 110.83666 | 39365 ft | 502 kts | 124° |
| 2026-04-27 04:53 | 53.21103 | 110.92808 | 39355 ft | 502 kts | 124° |
| 2026-04-27 04:54 | 53.16757 | 111.01934 | 39360 ft | 502 kts | 124° |
| 2026-04-27 04:54 | 53.12401 | 111.11046 | 39363 ft | 502 kts | 124° |
| 2026-04-27 04:55 | 53.08034 | 111.20149 | 39367 ft | 502 kts | 124° |
| 2026-04-27 04:55 | 53.03671 | 111.29212 | 39364 ft | 502 kts | 124° |
| 2026-04-27 04:56 | 52.99327 | 111.38200 | 39365 ft | 502 kts | 124° |
| 2026-04-27 04:56 | 52.94948 | 111.47228 | 39362 ft | 502 kts | 125° |
| 2026-04-27 04:57 | 52.90559 | 111.56245 | 39359 ft | 502 kts | 125° |
| 2026-04-27 04:57 | 52.86175 | 111.65222 | 39361 ft | 502 kts | 125° |
| 2026-04-27 04:58 | 52.81777 | 111.74195 | 39360 ft | 502 kts | 125° |
| 2026-04-27 04:58 | 52.77378 | 111.83139 | 39356 ft | 501 kts | 125° |
| 2026-04-27 04:59 | 52.72968 | 111.92070 | 39352 ft | 501 kts | 125° |
| 2026-04-27 04:59 | 52.68556 | 112.00974 | 39352 ft | 501 kts | 125° |
| 2026-04-27 05:00 | 52.64168 | 112.09801 | 39348 ft | 501 kts | 126° |
| 2026-04-27 05:00 | 52.59749 | 112.18658 | 39350 ft | 500 kts | 126° |
| 2026-04-27 05:01 | 52.55326 | 112.27493 | 39345 ft | 500 kts | 126° |
| 2026-04-27 05:01 | 52.50894 | 112.36314 | 39342 ft | 500 kts | 126° |
| 2026-04-27 05:02 | 52.46461 | 112.45105 | 39336 ft | 499 kts | 126° |
| 2026-04-27 05:03 | 52.39829 | 112.58202 | 39290 ft | 499 kts | 126° |
| 2026-04-27 05:03 | 52.35395 | 112.66922 | 39329 ft | 499 kts | 126° |
| 2026-04-27 05:04 | 52.30948 | 112.75637 | 39326 ft | 499 kts | 126° |
| 2026-04-27 05:04 | 52.26501 | 112.84320 | 39319 ft | 498 kts | 126° |
| 2026-04-27 05:05 | 52.22039 | 112.93002 | 39311 ft | 498 kts | 127° |
| 2026-04-27 05:05 | 52.18335 | 113.00189 | 39304 ft | 498 kts | 127° |
| 2026-04-27 05:06 | 52.13868 | 113.08827 | 39299 ft | 498 kts | 127° |
| 2026-04-27 05:06 | 52.09393 | 113.17453 | 39296 ft | 498 kts | 127° |
| 2026-04-27 05:07 | 52.04920 | 113.26047 | 39303 ft | 498 kts | 127° |
| 2026-04-27 05:07 | 52.02596 | 113.30237 | 39457 ft | 502 kts | 132° |
| 2026-04-27 05:07 | 52.00014 | 113.34070 | 39755 ft | 502 kts | 135° |
| 2026-04-27 05:07 | 51.97374 | 113.37779 | 40054 ft | 502 kts | 136° |
| 2026-04-27 05:08 | 51.94737 | 113.41392 | 40326 ft | 502 kts | 137° |
| 2026-04-27 05:08 | 51.92051 | 113.45023 | 40578 ft | 502 kts | 137° |
| 2026-04-27 05:08 | 51.89362 | 113.48643 | 40832 ft | 502 kts | 137° |
| 2026-04-27 05:08 | 51.86673 | 113.52259 | 41073 ft | 503 kts | 137° |
| 2026-04-27 05:09 | 51.83982 | 113.55881 | 41257 ft | 504 kts | 137° |
| 2026-04-27 05:09 | 51.78596 | 113.63133 | 41279 ft | 503 kts | 137° |
| 2026-04-27 05:10 | 51.73211 | 113.70373 | 41281 ft | 503 kts | 137° |
| 2026-04-27 05:10 | 51.67817 | 113.77604 | 41276 ft | 503 kts | 137° |
| 2026-04-27 05:11 | 51.62425 | 113.84808 | 41279 ft | 503 kts | 137° |
| 2026-04-27 05:11 | 51.57029 | 113.91990 | 41283 ft | 503 kts | 137° |
| 2026-04-27 05:12 | 51.51651 | 113.99101 | 41288 ft | 503 kts | 138° |
| 2026-04-27 05:12 | 51.46236 | 114.06236 | 41285 ft | 503 kts | 138° |
| 2026-04-27 05:13 | 51.40819 | 114.13355 | 41287 ft | 503 kts | 138° |
| 2026-04-27 05:13 | 51.35398 | 114.20460 | 41286 ft | 503 kts | 138° |
| 2026-04-27 05:14 | 51.29975 | 114.27547 | 41284 ft | 503 kts | 138° |
| 2026-04-27 05:14 | 51.24585 | 114.34570 | 41287 ft | 503 kts | 138° |
| 2026-04-27 05:15 | 51.19149 | 114.41628 | 41283 ft | 503 kts | 138° |
| 2026-04-27 05:15 | 51.13713 | 114.48671 | 41287 ft | 503 kts | 138° |
| 2026-04-27 05:16 | 51.09003 | 114.56755 | 41282 ft | 496 kts | 121° |
| 2026-04-27 05:16 | 51.05423 | 114.66113 | 41273 ft | 494 kts | 117° |
| 2026-04-27 05:17 | 51.02078 | 114.75595 | 41268 ft | 495 kts | 116° |
| 2026-04-27 05:17 | 50.98721 | 114.85125 | 41269 ft | 495 kts | 116° |
| 2026-04-27 05:18 | 50.95325 | 114.94630 | 41270 ft | 495 kts | 117° |
| 2026-04-27 05:18 | 50.91907 | 115.04103 | 41266 ft | 495 kts | 117° |
| 2026-04-27 05:19 | 50.88475 | 115.13572 | 41261 ft | 495 kts | 117° |
| 2026-04-27 05:19 | 50.85031 | 115.23040 | 41259 ft | 495 kts | 117° |
| 2026-04-27 05:20 | 50.81587 | 115.32479 | 41260 ft | 495 kts | 117° |
| 2026-04-27 05:20 | 50.78159 | 115.41839 | 41255 ft | 495 kts | 117° |
| 2026-04-27 05:21 | 50.74699 | 115.51252 | 41254 ft | 495 kts | 117° |
| 2026-04-27 05:21 | 50.71229 | 115.60658 | 41251 ft | 496 kts | 118° |
| 2026-04-27 05:22 | 50.67755 | 115.70040 | 41252 ft | 496 kts | 118° |
| 2026-04-27 05:22 | 50.64268 | 115.79424 | 41253 ft | 496 kts | 118° |
| 2026-04-27 05:23 | 50.60774 | 115.88793 | 41252 ft | 496 kts | 118° |
| 2026-04-27 05:23 | 50.57271 | 115.98150 | 41248 ft | 496 kts | 118° |
| 2026-04-27 05:24 | 50.53633 | 116.07383 | 41245 ft | 496 kts | 120° |
| 2026-04-27 05:24 | 50.49941 | 116.16475 | 41244 ft | 496 kts | 120° |
| 2026-04-27 05:25 | 50.46237 | 116.25621 | 41238 ft | 496 kts | 120° |
| 2026-04-27 05:25 | 50.42538 | 116.34785 | 41237 ft | 496 kts | 120° |
| 2026-04-27 05:26 | 50.38644 | 116.43726 | 41232 ft | 499 kts | 128° |
| 2026-04-27 05:26 | 50.33574 | 116.51186 | 41233 ft | 501 kts | 139° |
| 2026-04-27 05:27 | 50.28161 | 116.57984 | 41233 ft | 502 kts | 140° |
| 2026-04-27 05:27 | 50.22653 | 116.64725 | 41223 ft | 502 kts | 140° |
| 2026-04-27 05:28 | 50.17162 | 116.71473 | 41219 ft | 502 kts | 140° |
| 2026-04-27 05:28 | 50.11676 | 116.78235 | 41217 ft | 502 kts | 140° |
| 2026-04-27 05:29 | 50.06175 | 116.84961 | 41217 ft | 502 kts | 140° |
| 2026-04-27 05:29 | 50.00668 | 116.91666 | 41217 ft | 502 kts | 140° |
| 2026-04-27 05:30 | 49.95194 | 116.98317 | 41212 ft | 502 kts | 140° |
| 2026-04-27 05:30 | 49.89683 | 117.04996 | 41212 ft | 502 kts | 140° |
| 2026-04-27 05:31 | 49.84170 | 117.11660 | 41205 ft | 502 kts | 141° |
| 2026-04-27 05:31 | 49.78649 | 117.18311 | 41204 ft | 502 kts | 141° |
| 2026-04-27 05:32 | 49.73124 | 117.24949 | 41203 ft | 502 kts | 141° |
| 2026-04-27 05:32 | 49.67593 | 117.31575 | 41201 ft | 503 kts | 141° |
| 2026-04-27 05:33 | 49.62421 | 117.38774 | 41198 ft | 500 kts | 128° |
| 2026-04-27 05:33 | 49.58072 | 117.47128 | 41196 ft | 499 kts | 126° |
| 2026-04-27 05:34 | 49.53898 | 117.55604 | 41194 ft | 500 kts | 125° |
| 2026-04-27 05:34 | 49.49702 | 117.64135 | 41189 ft | 500 kts | 126° |
| 2026-04-27 05:35 | 49.45481 | 117.72627 | 41190 ft | 500 kts | 126° |
| 2026-04-27 05:35 | 49.41232 | 117.81115 | 41185 ft | 500 kts | 126° |
| 2026-04-27 05:36 | 49.36983 | 117.89569 | 41180 ft | 501 kts | 126° |
| 2026-04-27 05:36 | 49.32721 | 117.98026 | 41179 ft | 501 kts | 126° |
| 2026-04-27 05:37 | 49.28453 | 118.06469 | 41187 ft | 501 kts | 126° |
| 2026-04-27 05:37 | 49.23688 | 118.14330 | 41270 ft | 504 kts | 134° |
| 2026-04-27 05:38 | 49.18613 | 118.21741 | 41266 ft | 504 kts | 135° |
| 2026-04-27 05:38 | 49.13495 | 118.29060 | 41270 ft | 504 kts | 136° |
| 2026-04-27 05:39 | 49.08408 | 118.36329 | 41253 ft | 505 kts | 136° |
| 2026-04-27 05:39 | 49.03284 | 118.43657 | 41255 ft | 505 kts | 136° |
| 2026-04-27 05:40 | 48.98151 | 118.50985 | 41264 ft | 505 kts | 136° |
| 2026-04-27 05:40 | 48.93007 | 118.58308 | 41248 ft | 505 kts | 136° |
| 2026-04-27 05:41 | 48.87862 | 118.65612 | 41248 ft | 505 kts | 136° |
| 2026-04-27 05:41 | 48.82718 | 118.72893 | 41243 ft | 505 kts | 136° |
| 2026-04-27 05:42 | 48.77565 | 118.80163 | 41243 ft | 506 kts | 136° |
| 2026-04-27 05:42 | 48.72444 | 118.87368 | 41241 ft | 506 kts | 136° |
| 2026-04-27 05:43 | 48.67279 | 118.94615 | 41239 ft | 506 kts | 136° |
| 2026-04-27 05:43 | 48.62103 | 119.01855 | 41257 ft | 506 kts | 136° |
| 2026-04-27 05:44 | 48.56925 | 119.09076 | 41240 ft | 506 kts | 136° |
| 2026-04-27 05:44 | 48.51770 | 119.16244 | 41232 ft | 507 kts | 137° |
| 2026-04-27 05:45 | 48.46583 | 119.23436 | 41231 ft | 507 kts | 137° |
| 2026-04-27 05:45 | 48.41390 | 119.30614 | 41234 ft | 507 kts | 137° |
| 2026-04-27 05:46 | 48.36187 | 119.37788 | 41232 ft | 507 kts | 137° |
| 2026-04-27 05:46 | 48.30978 | 119.44947 | 41225 ft | 507 kts | 137° |
| 2026-04-27 05:47 | 48.25769 | 119.52086 | 41230 ft | 507 kts | 137° |
| 2026-04-27 05:47 | 48.20558 | 119.59208 | 41227 ft | 507 kts | 137° |
| 2026-04-27 05:48 | 48.15345 | 119.66312 | 41227 ft | 507 kts | 137° |
| 2026-04-27 05:48 | 48.10156 | 119.73363 | 41228 ft | 507 kts | 137° |
| 2026-04-27 05:49 | 48.04931 | 119.80441 | 41224 ft | 506 kts | 137° |
| 2026-04-27 05:49 | 47.99701 | 119.87506 | 41221 ft | 506 kts | 138° |
| 2026-04-27 05:50 | 47.94465 | 119.94560 | 41219 ft | 506 kts | 138° |
| 2026-04-27 05:50 | 47.89228 | 120.01595 | 41217 ft | 507 kts | 138° |
| 2026-04-27 05:51 | 47.83986 | 120.08617 | 41219 ft | 507 kts | 138° |
| 2026-04-27 05:51 | 47.79626 | 120.14443 | 41219 ft | 507 kts | 138° |
| 2026-04-27 05:52 | 47.74375 | 120.21439 | 41219 ft | 507 kts | 138° |
| 2026-04-27 05:52 | 47.68257 | 120.29567 | 41225 ft | 508 kts | 138° |
| 2026-04-27 05:53 | 47.63843 | 120.35415 | 41227 ft | 508 kts | 138° |
| 2026-04-27 05:53 | 47.58595 | 120.42349 | 41227 ft | 508 kts | 139° |
| 2026-04-27 05:54 | 47.53303 | 120.49322 | 41230 ft | 508 kts | 139° |
| 2026-04-27 05:54 | 47.47914 | 120.56090 | 41227 ft | 508 kts | 146° |
| 2026-04-27 05:55 | 47.41645 | 120.60758 | 41231 ft | 505 kts | 162° |
| 2026-04-27 05:55 | 47.34936 | 120.63821 | 41227 ft | 505 kts | 165° |
| 2026-04-27 05:56 | 47.28165 | 120.66611 | 41224 ft | 505 kts | 166° |
| 2026-04-27 05:56 | 47.21391 | 120.69411 | 41226 ft | 505 kts | 165° |
| 2026-04-27 05:57 | 47.14677 | 120.72232 | 41221 ft | 505 kts | 165° |
| 2026-04-27 05:57 | 47.07912 | 120.75090 | 41216 ft | 506 kts | 165° |
| 2026-04-27 05:58 | 47.01138 | 120.77947 | 41220 ft | 506 kts | 165° |
| 2026-04-27 05:58 | 46.94377 | 120.80788 | 41205 ft | 506 kts | 165° |
| 2026-04-27 05:59 | 46.87606 | 120.83625 | 41211 ft | 505 kts | 166° |
| 2026-04-27 05:59 | 46.80881 | 120.86435 | 41212 ft | 506 kts | 166° |
| 2026-04-27 06:00 | 46.70730 | 120.90662 | 41204 ft | 506 kts | 166° |
| 2026-04-27 06:00 | 46.63948 | 120.93477 | 41202 ft | 506 kts | 166° |
| 2026-04-27 06:01 | 46.57171 | 120.96283 | 41206 ft | 506 kts | 166° |
| 2026-04-27 06:01 | 46.50398 | 120.99081 | 41206 ft | 506 kts | 166° |
| 2026-04-27 06:02 | 46.43661 | 121.01856 | 41204 ft | 506 kts | 166° |
| 2026-04-27 06:02 | 46.36885 | 121.04639 | 41204 ft | 506 kts | 166° |
| 2026-04-27 06:03 | 46.30105 | 121.07419 | 41204 ft | 506 kts | 166° |
| 2026-04-27 06:03 | 46.23326 | 121.10245 | 41205 ft | 506 kts | 166° |
| 2026-04-27 06:04 | 46.16551 | 121.13086 | 41203 ft | 506 kts | 166° |
| 2026-04-27 06:04 | 46.09784 | 121.15912 | 41204 ft | 506 kts | 166° |
| 2026-04-27 06:05 | 46.03054 | 121.18712 | 41202 ft | 506 kts | 166° |
| 2026-04-27 06:05 | 45.96284 | 121.21519 | 41201 ft | 506 kts | 166° |
| 2026-04-27 06:06 | 45.89722 | 121.25208 | 41204 ft | 509 kts | 152° |
| 2026-04-27 06:06 | 45.83589 | 121.30342 | 41203 ft | 511 kts | 150° |
| 2026-04-27 06:07 | 45.77559 | 121.35706 | 41198 ft | 511 kts | 150° |
| 2026-04-27 06:07 | 45.71552 | 121.41049 | 41198 ft | 510 kts | 150° |
| 2026-04-27 06:08 | 45.65504 | 121.46372 | 41197 ft | 510 kts | 150° |
| 2026-04-27 06:08 | 45.59434 | 121.51676 | 41196 ft | 510 kts | 150° |
| 2026-04-27 06:09 | 45.53376 | 121.56953 | 41195 ft | 510 kts | 150° |
| 2026-04-27 06:09 | 45.47315 | 121.62221 | 41194 ft | 510 kts | 150° |
| 2026-04-27 06:10 | 45.41286 | 121.67449 | 41191 ft | 510 kts | 150° |
| 2026-04-27 06:10 | 45.35221 | 121.72695 | 41190 ft | 510 kts | 151° |
| 2026-04-27 06:11 | 45.29152 | 121.77932 | 41185 ft | 510 kts | 151° |
| 2026-04-27 06:11 | 45.23083 | 121.83155 | 41187 ft | 509 kts | 151° |
| 2026-04-27 06:12 | 45.17022 | 121.88358 | 41181 ft | 509 kts | 151° |
| 2026-04-27 06:12 | 45.10949 | 121.93558 | 41180 ft | 509 kts | 151° |
| 2026-04-27 06:13 | 45.04912 | 121.98714 | 41177 ft | 509 kts | 151° |
| 2026-04-27 06:13 | 44.98841 | 122.03887 | 41175 ft | 509 kts | 151° |
| 2026-04-27 06:14 | 44.92763 | 122.09053 | 41172 ft | 509 kts | 151° |
| 2026-04-27 06:14 | 44.86682 | 122.14227 | 41168 ft | 510 kts | 151° |
| 2026-04-27 06:15 | 44.80626 | 122.19445 | 41164 ft | 510 kts | 151° |
| 2026-04-27 06:15 | 44.74618 | 122.24623 | 41165 ft | 510 kts | 151° |
| 2026-04-27 06:16 | 44.68557 | 122.29824 | 41165 ft | 510 kts | 151° |
| 2026-04-27 06:16 | 44.62488 | 122.35013 | 41160 ft | 510 kts | 151° |
| 2026-04-27 06:17 | 44.56408 | 122.40197 | 41158 ft | 511 kts | 151° |
| 2026-04-27 06:17 | 44.50325 | 122.45370 | 41156 ft | 511 kts | 151° |
| 2026-04-27 06:18 | 44.44247 | 122.50528 | 41151 ft | 511 kts | 151° |
| 2026-04-27 06:18 | 44.38164 | 122.55677 | 41147 ft | 511 kts | 151° |
| 2026-04-27 06:19 | 44.32076 | 122.60818 | 41147 ft | 511 kts | 151° |
| 2026-04-27 06:19 | 44.25986 | 122.65948 | 41140 ft | 511 kts | 152° |
| 2026-04-27 06:20 | 44.19926 | 122.71039 | 41142 ft | 511 kts | 152° |
| 2026-04-27 06:20 | 44.13820 | 122.76157 | 41142 ft | 512 kts | 152° |
| 2026-04-27 06:21 | 44.07710 | 122.81267 | 41135 ft | 512 kts | 152° |
| 2026-04-27 06:21 | 44.01598 | 122.86365 | 41131 ft | 512 kts | 152° |
| 2026-04-27 06:22 | 43.95487 | 122.91450 | 41132 ft | 512 kts | 152° |
| 2026-04-27 06:22 | 43.89417 | 122.96509 | 41127 ft | 512 kts | 152° |
| 2026-04-27 06:23 | 43.83323 | 123.01614 | 41127 ft | 512 kts | 152° |
| 2026-04-27 06:23 | 43.77215 | 123.06720 | 41123 ft | 512 kts | 152° |
| 2026-04-27 06:24 | 43.71100 | 123.11815 | 41123 ft | 512 kts | 152° |
| 2026-04-27 06:24 | 43.64991 | 123.16889 | 41126 ft | 512 kts | 152° |
| 2026-04-27 06:25 | 43.58888 | 123.21959 | 41117 ft | 512 kts | 152° |
| 2026-04-27 06:25 | 43.52791 | 123.27058 | 41128 ft | 512 kts | 152° |
| 2026-04-27 06:26 | 43.46699 | 123.32150 | 41117 ft | 512 kts | 152° |
| 2026-04-27 06:26 | 43.40642 | 123.37195 | 41107 ft | 512 kts | 152° |
| 2026-04-27 06:27 | 43.34541 | 123.42263 | 41112 ft | 512 kts | 152° |
| 2026-04-27 06:27 | 43.28441 | 123.47317 | 41108 ft | 512 kts | 152° |
| 2026-04-27 06:28 | 43.22335 | 123.52364 | 41114 ft | 512 kts | 152° |
| 2026-04-27 06:28 | 43.16232 | 123.57397 | 41107 ft | 512 kts | 152° |
| 2026-04-27 06:29 | 43.10125 | 123.62420 | 41109 ft | 512 kts | 152° |
| 2026-04-27 06:29 | 43.04015 | 123.67434 | 41101 ft | 512 kts | 152° |
| 2026-04-27 06:30 | 42.97900 | 123.72442 | 41105 ft | 512 kts | 153° |
| 2026-04-27 06:30 | 42.91779 | 123.77442 | 41102 ft | 512 kts | 153° |
| 2026-04-27 06:31 | 42.85695 | 123.82401 | 41099 ft | 513 kts | 153° |
| 2026-04-27 06:31 | 42.79569 | 123.87382 | 41097 ft | 513 kts | 153° |
| 2026-04-27 06:32 | 42.73439 | 123.92355 | 41097 ft | 513 kts | 153° |
| 2026-04-27 06:32 | 42.67298 | 123.97303 | 41090 ft | 512 kts | 154° |
| 2026-04-27 06:33 | 42.60744 | 124.00748 | 41094 ft | 501 kts | 173° |
| 2026-04-27 06:33 | 42.53881 | 124.02009 | 41091 ft | 496 kts | 179° |
| 2026-04-27 06:34 | 42.47047 | 124.02844 | 41090 ft | 496 kts | 180° |
| 2026-04-27 06:34 | 42.40161 | 124.03658 | 41086 ft | 496 kts | 179° |
| 2026-04-27 06:35 | 42.33292 | 124.04513 | 41092 ft | 496 kts | 179° |
| 2026-04-27 06:35 | 42.26412 | 124.05393 | 41080 ft | 496 kts | 179° |
| 2026-04-27 06:36 | 42.19540 | 124.06275 | 41081 ft | 496 kts | 179° |
| 2026-04-27 06:36 | 42.12669 | 124.07154 | 41080 ft | 495 kts | 179° |
| 2026-04-27 06:37 | 42.05807 | 124.08028 | 41083 ft | 495 kts | 179° |
| 2026-04-27 06:37 | 41.98994 | 124.08893 | 41079 ft | 495 kts | 179° |
| 2026-04-27 06:38 | 41.92143 | 124.09761 | 41075 ft | 495 kts | 179° |
| 2026-04-27 06:38 | 41.85291 | 124.10627 | 41071 ft | 495 kts | 179° |
| 2026-04-27 06:39 | 41.78420 | 124.11505 | 41068 ft | 495 kts | 179° |
| 2026-04-27 06:39 | 41.72711 | 124.12240 | 41066 ft | 496 kts | 179° |
| 2026-04-27 06:40 | 41.69284 | 124.12680 | 40882 ft | 494 kts | 180° |
| 2026-04-27 06:40 | 41.65851 | 124.13121 | 40640 ft | 495 kts | 180° |
| 2026-04-27 06:40 | 41.62410 | 124.13561 | 40395 ft | 496 kts | 180° |
| 2026-04-27 06:40 | 41.58979 | 124.13999 | 40153 ft | 496 kts | 180° |
| 2026-04-27 06:41 | 41.55538 | 124.14439 | 39916 ft | 496 kts | 180° |
| 2026-04-27 06:41 | 41.52098 | 124.14878 | 39686 ft | 496 kts | 180° |
| 2026-04-27 06:41 | 41.48658 | 124.15318 | 39464 ft | 496 kts | 180° |
| 2026-04-27 06:41 | 41.45217 | 124.15757 | 39223 ft | 496 kts | 180° |
| 2026-04-27 06:42 | 41.41780 | 124.16195 | 38993 ft | 496 kts | 180° |
| 2026-04-27 06:42 | 41.38379 | 124.16618 | 38772 ft | 496 kts | 181° |
| 2026-04-27 06:42 | 41.34941 | 124.16954 | 38536 ft | 495 kts | 182° |
| 2026-04-27 06:42 | 41.31497 | 124.17225 | 38245 ft | 494 kts | 183° |
| 2026-04-27 06:43 | 41.28065 | 124.17475 | 37966 ft | 493 kts | 183° |
| 2026-04-27 06:43 | 41.24644 | 124.17732 | 37690 ft | 492 kts | 183° |
| 2026-04-27 06:43 | 41.21231 | 124.17999 | 37422 ft | 491 kts | 183° |
| 2026-04-27 06:43 | 41.17820 | 124.18273 | 37149 ft | 489 kts | 183° |
| 2026-04-27 06:44 | 41.14426 | 124.18555 | 36889 ft | 488 kts | 182° |
| 2026-04-27 06:44 | 41.11039 | 124.18844 | 36629 ft | 488 kts | 182° |
| 2026-04-27 06:44 | 41.07655 | 124.19133 | 36362 ft | 486 kts | 183° |
| 2026-04-27 06:44 | 41.04282 | 124.19417 | 36108 ft | 485 kts | 183° |
| 2026-04-27 06:45 | 41.00911 | 124.19733 | 35853 ft | 485 kts | 182° |
| 2026-04-27 06:45 | 40.97590 | 124.20105 | 35603 ft | 485 kts | 181° |
| 2026-04-27 06:45 | 40.94233 | 124.20508 | 35354 ft | 485 kts | 181° |
| 2026-04-27 06:45 | 40.90873 | 124.20919 | 35103 ft | 484 kts | 181° |
| 2026-04-27 06:46 | 40.87525 | 124.21322 | 34862 ft | 483 kts | 181° |
| 2026-04-27 06:46 | 40.84175 | 124.21718 | 34617 ft | 482 kts | 182° |
| 2026-04-27 06:46 | 40.80837 | 124.22105 | 34370 ft | 482 kts | 182° |
| 2026-04-27 06:46 | 40.77499 | 124.22487 | 34147 ft | 481 kts | 182° |
| 2026-04-27 06:47 | 40.74159 | 124.22867 | 33905 ft | 481 kts | 182° |
| 2026-04-27 06:47 | 40.70816 | 124.23244 | 33614 ft | 481 kts | 182° |
| 2026-04-27 06:47 | 40.67488 | 124.23616 | 33328 ft | 480 kts | 182° |
| 2026-04-27 06:47 | 40.64161 | 124.23990 | 33050 ft | 480 kts | 181° |
| 2026-04-27 06:48 | 40.60834 | 124.24365 | 32502 ft | 476 kts | 181° |
| 2026-04-27 06:48 | 40.57544 | 124.24737 | 31711 ft | 473 kts | 181° |
| 2026-04-27 06:48 | 40.54320 | 124.25100 | 30888 ft | 470 kts | 180° |
| 2026-04-27 06:48 | 40.51068 | 124.25465 | 30043 ft | 468 kts | 180° |
| 2026-04-27 06:49 | 40.47829 | 124.25831 | 29221 ft | 462 kts | 179° |
| 2026-04-27 06:49 | 40.44646 | 124.26197 | 28596 ft | 454 kts | 179° |
| 2026-04-27 06:49 | 40.41532 | 124.26555 | 27984 ft | 445 kts | 179° |
| 2026-04-27 06:49 | 40.38459 | 124.26906 | 27393 ft | 438 kts | 180° |
| 2026-04-27 06:50 | 40.35479 | 124.27253 | 26816 ft | 432 kts | 179° |
| 2026-04-27 06:50 | 40.32529 | 124.27967 | 26220 ft | 432 kts | 169° |
| 2026-04-27 06:50 | 40.29717 | 124.29390 | 25627 ft | 434 kts | 158° |
| 2026-04-27 06:50 | 40.27194 | 124.31582 | 25021 ft | 439 kts | 145° |
| 2026-04-27 06:51 | 40.25095 | 124.34522 | 24412 ft | 445 kts | 131° |
| 2026-04-27 06:51 | 40.23576 | 124.38072 | 23810 ft | 451 kts | 117° |
| 2026-04-27 06:51 | 40.22534 | 124.41957 | 23164 ft | 451 kts | 112° |
| 2026-04-27 06:51 | 40.21671 | 124.45877 | 22499 ft | 447 kts | 110° |
| 2026-04-27 06:52 | 40.20756 | 124.49730 | 21877 ft | 438 kts | 116° |
| 2026-04-27 06:52 | 40.19405 | 124.53234 | 21319 ft | 426 kts | 126° |
| 2026-04-27 06:52 | 40.17889 | 124.56489 | 20790 ft | 423 kts | 127° |
| 2026-04-27 06:52 | 40.16304 | 124.59743 | 20244 ft | 422 kts | 128° |
| 2026-04-27 06:53 | 40.14713 | 124.62956 | 19691 ft | 420 kts | 128° |
| 2026-04-27 06:53 | 40.13119 | 124.66146 | 19152 ft | 418 kts | 128° |
| 2026-04-27 06:53 | 40.11529 | 124.69316 | 18583 ft | 416 kts | 128° |
| 2026-04-27 06:53 | 40.09967 | 124.72429 | 18015 ft | 414 kts | 128° |
| 2026-04-27 06:54 | 40.08391 | 124.75557 | 17399 ft | 410 kts | 128° |
| 2026-04-27 06:54 | 40.06834 | 124.78640 | 16835 ft | 404 kts | 128° |
| 2026-04-27 06:54 | 40.05298 | 124.81675 | 16290 ft | 398 kts | 128° |
| 2026-04-27 06:54 | 40.03781 | 124.84671 | 15730 ft | 393 kts | 128° |
| 2026-04-27 06:55 | 40.02279 | 124.87635 | 15178 ft | 390 kts | 128° |
| 2026-04-27 06:55 | 40.00791 | 124.90568 | 14627 ft | 386 kts | 128° |
| 2026-04-27 06:55 | 39.99309 | 124.93483 | 14059 ft | 385 kts | 128° |
| 2026-04-27 06:55 | 39.97830 | 124.96394 | 13496 ft | 383 kts | 128° |
| 2026-04-27 06:56 | 39.96360 | 124.99284 | 12897 ft | 381 kts | 128° |
| 2026-04-27 06:56 | 39.94907 | 125.02136 | 12331 ft | 376 kts | 128° |
| 2026-04-27 06:56 | 39.93468 | 125.04958 | 11775 ft | 371 kts | 128° |
| 2026-04-27 06:56 | 39.92065 | 125.07707 | 11522 ft | 355 kts | 128° |
| 2026-04-27 06:57 | 39.90741 | 125.10315 | 11419 ft | 336 kts | 128° |
| 2026-04-27 06:57 | 39.89482 | 125.12784 | 11307 ft | 318 kts | 128° |
| 2026-04-27 06:57 | 39.88289 | 125.15122 | 11203 ft | 302 kts | 128° |
| 2026-04-27 06:57 | 39.87153 | 125.17344 | 11082 ft | 288 kts | 129° |
| 2026-04-27 06:58 | 39.86071 | 125.19454 | 10974 ft | 278 kts | 129° |
| 2026-04-27 06:58 | 39.83986 | 125.23515 | 10717 ft | 266 kts | 129° |
| 2026-04-27 06:58 | 39.82952 | 125.25520 | 10487 ft | 266 kts | 129° |
| 2026-04-27 06:59 | 39.79803 | 125.31628 | 9768 ft | 278 kts | 128° |
| 2026-04-27 06:59 | 39.78717 | 125.33735 | 9631 ft | 280 kts | 128° |
| 2026-04-27 07:00 | 39.77638 | 125.35836 | 9161 ft | 280 kts | 128° |
| 2026-04-27 07:00 | 39.76561 | 125.37932 | 8784 ft | 278 kts | 128° |
| 2026-04-27 07:00 | 39.75489 | 125.40016 | 8477 ft | 276 kts | 128° |
| 2026-04-27 07:00 | 39.74434 | 125.42060 | 8185 ft | 274 kts | 127° |
| 2026-04-27 07:01 | 39.73248 | 125.43963 | 7904 ft | 268 kts | 141° |
| 2026-04-27 07:01 | 39.71686 | 125.45201 | 7664 ft | 262 kts | 160° |
| 2026-04-27 07:01 | 39.69977 | 125.46013 | 7418 ft | 261 kts | 163° |
| 2026-04-27 07:01 | 39.68258 | 125.46766 | 7173 ft | 259 kts | 163° |
| 2026-04-27 07:02 | 39.66552 | 125.47520 | 6930 ft | 258 kts | 162° |
| 2026-04-27 07:02 | 39.64859 | 125.48279 | 6689 ft | 257 kts | 162° |
| 2026-04-27 07:02 | 39.63167 | 125.49042 | 6445 ft | 257 kts | 162° |
| 2026-04-27 07:02 | 39.61507 | 125.49794 | 6198 ft | 255 kts | 162° |
| 2026-04-27 07:03 | 39.59840 | 125.50550 | 5970 ft | 254 kts | 162° |
| 2026-04-27 07:03 | 39.58208 | 125.51293 | 5806 ft | 242 kts | 162° |
| 2026-04-27 07:03 | 39.56655 | 125.52001 | 5691 ft | 231 kts | 162° |
| 2026-04-27 07:03 | 39.55173 | 125.52674 | 5555 ft | 221 kts | 162° |
| 2026-04-27 07:04 | 39.53745 | 125.53323 | 5370 ft | 215 kts | 162° |
| 2026-04-27 07:04 | 39.52338 | 125.53961 | 5104 ft | 213 kts | 162° |
| 2026-04-27 07:04 | 39.50945 | 125.54589 | 4862 ft | 210 kts | 162° |
| 2026-04-27 07:04 | 39.49574 | 125.55208 | 4607 ft | 208 kts | 162° |
| 2026-04-27 07:05 | 39.48213 | 125.55826 | 4369 ft | 206 kts | 163° |
| 2026-04-27 07:05 | 39.46856 | 125.56441 | 4166 ft | 208 kts | 162° |
| 2026-04-27 07:05 | 39.45491 | 125.57059 | 3971 ft | 207 kts | 163° |
| 2026-04-27 07:05 | 39.44137 | 125.57673 | 3774 ft | 206 kts | 163° |
| 2026-04-27 07:06 | 39.42787 | 125.58285 | 3568 ft | 205 kts | 163° |
| 2026-04-27 07:06 | 39.41429 | 125.58847 | 3322 ft | 204 kts | 166° |
| 2026-04-27 07:06 | 39.40073 | 125.59367 | 3113 ft | 204 kts | 167° |
| 2026-04-27 07:06 | 39.38720 | 125.59864 | 2950 ft | 198 kts | 168° |
| 2026-04-27 07:07 | 39.37424 | 125.60359 | 2853 ft | 189 kts | 166° |
| 2026-04-27 07:07 | 39.36199 | 125.60854 | 2785 ft | 179 kts | 166° |
| 2026-04-27 07:07 | 39.35074 | 125.61305 | 2692 ft | 164 kts | 167° |
| 2026-04-27 07:07 | 39.34003 | 125.61726 | 2585 ft | 153 kts | 167° |
| 2026-04-27 07:08 | 39.33035 | 125.62100 | 2404 ft | 141 kts | 168° |
| 2026-04-27 07:08 | 39.32121 | 125.62459 | 2208 ft | 138 kts | 170° |
| 2026-04-27 07:08 | 39.31207 | 125.62817 | 2020 ft | 137 kts | 169° |
| 2026-04-27 07:08 | 39.30307 | 125.63176 | 1824 ft | 134 kts | 169° |
| 2026-04-27 07:09 | 39.29404 | 125.63530 | 1662 ft | 136 kts | 170° |
| 2026-04-27 07:09 | 39.28523 | 125.63880 | 1469 ft | 129 kts | 170° |
| 2026-04-27 07:09 | 39.27678 | 125.64215 | 1298 ft | 126 kts | 169° |
| 2026-04-27 07:09 | 39.26838 | 125.64545 | 1116 ft | 127 kts | 169° |
| 2026-04-27 07:10 | 39.25999 | 125.64877 | 949 ft | 126 kts | 168° |
| 2026-04-27 07:10 | 39.25159 | 125.65211 | 782 ft | 127 kts | 168° |
| 2026-04-27 07:10 | 39.24318 | 125.65543 | 606 ft | 130 kts | 169° |
| 2026-04-27 07:10 | 39.23452 | 125.65885 | 428 ft | 129 kts | 168° |
| 2026-04-27 07:11 | 39.22589 | 125.66226 | 259 ft | 129 kts | 169° |
| 2026-04-27 07:11 | 39.21732 | 125.66564 | 108 ft | 127 kts | 165° |
| 2026-04-27 07:11 | 39.20996 | 125.66856 | 96 ft | 78 kts | 163° |
| 2026-04-27 07:11 | 39.20709 | 125.66962 | 94 ft | 30 kts | 164° |
| 2026-04-27 07:12 | 39.20495 | 125.67040 | 94 ft | 33 kts | 165° |
| 2026-04-27 07:12 | 39.20330 | 125.67147 | 99 ft | 26 kts | 130° |
| 2026-04-27 07:12 | 39.20288 | 125.67237 | 95 ft | 0 kts | 120° |
| 2026-04-27 07:12 | 39.20282 | 125.67250 | 95 ft | 5 kts | 120° |
| 2026-04-27 07:13 | 39.20250 | 125.67324 | 96 ft | 14 kts | 118° |
| 2026-04-27 07:13 | 39.20175 | 125.67433 | 95 ft | 19 kts | 155° |
| 2026-04-27 07:13 | 39.20067 | 125.67475 | 96 ft | 13 kts | 163° |
| 2026-04-27 07:13 | 39.20006 | 125.67506 | 94 ft | 8 kts | 142° |
| 2026-04-27 07:14 | 39.20001 | 125.67565 | 95 ft | 0 kts | 72° |
| 2026-04-27 07:14 | 39.20002 | 125.67568 | 95 ft | 0 kts | 73° |